Observation data for Throckmorton on 08/14/2019      Previous  Date  Next       Current Mesonet Observations  Soil Data  Daily Summary Page  Observations in Plain Language
KTH1 140500Z 04005KT 28/22 A30 RMK A01 T02750219  RH  071%=      5-min Rain = 0
KTH1 140501Z 04006KT 28/22 A30 RMK A01 T02750219  RH  072%=      5-min Rain = 0
KTH1 140502Z 04005KT 28/22 A30 RMK A01 T02750220  RH  072%=      5-min Rain = 0
KTH1 140503Z 04004KT 28/22 A30 RMK A01 T02750219  RH  072%=      5-min Rain = 0
KTH1 140504Z 04003KT 28/22 A30 RMK A01 T02750220  RH  072%=      5-min Rain = 0
KTH1 140505Z 04004KT 28/22 A30 RMK A01 T02750220  RH  072%=      5-min Rain = 0
KTH1 140506Z 04006KT 27/22 A30 RMK A01 T02740220  RH  072%=      5-min Rain = 0
KTH1 140507Z 04004KT 27/22 A30 RMK A01 T02740220  RH  072%=      5-min Rain = 0
KTH1 140508Z 04004KT 27/22 A30 RMK A01 T02740220  RH  073%=      5-min Rain = 0
KTH1 140509Z 04004KT 27/22 A30 RMK A01 T02730220  RH  073%=      5-min Rain = 0
KTH1 140510Z 04004KT 27/22 A30 RMK A01 T02730220  RH  073%=      5-min Rain = 0
KTH1 140519Z 04005KT 27/22 A3001 RMK A01 T02720221  RH  073%=      5-min Rain = 0
KTH1 140520Z 04005KT 27/22 A3001 RMK A01 T02720221  RH  073%=      5-min Rain = 0
KTH1 140521Z 03005KT 27/22 A3001 RMK A01 T02720221  RH  073%=      5-min Rain = 0
KTH1 140522Z 04006KT 27/22 A3001 RMK A01 T02720221  RH  073%=      5-min Rain = 0
KTH1 140523Z 04005KT 27/22 A3001 RMK A01 T02720221  RH  073%=      5-min Rain = 0
KTH1 140524Z 04005KT 27/22 A3001 RMK A01 T02720221  RH  073%=      5-min Rain = 0
KTH1 140525Z 03006KT 27/22 A3001 RMK A01 T02720221  RH  073%=      5-min Rain = 0
KTH1 140526Z 03004KT 27/22 A3001 RMK A01 T02720221  RH  074%=      5-min Rain = 0
KTH1 140527Z 03005KT 27/22 A3001 RMK A01 T02720220  RH  074%=      5-min Rain = 0
KTH1 140528Z 02004KT 27/22 A3001 RMK A01 T02720221  RH  074%=      5-min Rain = 0
KTH1 140529Z 01004KT 27/22 A3001 RMK A01 T02720221  RH  074%=      5-min Rain = 0
KTH1 140530Z 03005KT 27/22 A3001 RMK A01 T02710221  RH  074%=      5-min Rain = 0
KTH1 140531Z 02005KT 27/22 A3001 RMK A01 T02710220  RH  074%=      5-min Rain = 0
KTH1 140532Z 03006KT 27/22 A3001 RMK A01 T02710221  RH  074%=      5-min Rain = 0
KTH1 140533Z 03004KT 27/22 A3001 RMK A01 T02700220  RH  074%=      5-min Rain = 0
KTH1 140534Z 03005KT 27/22 A3001 RMK A01 T02700220  RH  074%=      5-min Rain = 0
KTH1 140535Z 04004KT 27/22 A3001 RMK A01 T02700220  RH  074%=      5-min Rain = 0
KTH1 140536Z 03004KT 27/22 A3001 RMK A01 T02700220  RH  074%=      5-min Rain = 0
KTH1 140537Z 03005KT 27/22 A3001 RMK A01 T02700220  RH  074%=      5-min Rain = 0
KTH1 140538Z 02005KT 27/22 A3001 RMK A01 T02700220  RH  074%=      5-min Rain = 0
KTH1 140539Z 03005KT 27/22 A3001 RMK A01 T02690220  RH  074%=      5-min Rain = 0
KTH1 140540Z 03003KT 27/22 A3001 RMK A01 T02690219  RH  074%=      5-min Rain = 0
KTH1 140541Z 03005KT 27/22 A3001 RMK A01 T02690219  RH  074%=      5-min Rain = 0
KTH1 140542Z 04004KT 27/22 A3001 RMK A01 T02680219  RH  074%=      5-min Rain = 0
KTH1 140543Z 03004KT 27/22 A3001 RMK A01 T02680219  RH  075%=      5-min Rain = 0
KTH1 140544Z 03005KT 27/22 A3001 RMK A01 T02680219  RH  075%=      5-min Rain = 0
KTH1 140545Z 03004KT 27/22 A3001 RMK A01 T02680219  RH  075%=      5-min Rain = 0
KTH1 140546Z 03005KT 27/22 A3001 RMK A01 T02670219  RH  075%=      5-min Rain = 0
KTH1 140547Z 03004KT 27/22 A3001 RMK A01 T02670219  RH  075%=      5-min Rain = 0
KTH1 140548Z 02004KT 27/22 A3001 RMK A01 T02670219  RH  075%=      5-min Rain = 0
KTH1 140549Z 02004KT 27/22 A3001 RMK A01 T02670219  RH  075%=      5-min Rain = 0
KTH1 140550Z 02004KT 27/22 A3001 RMK A01 T02660219  RH  075%=      5-min Rain = 0
KTH1 140551Z 03003KT 27/22 A3001 RMK A01 T02660219  RH  075%=      5-min Rain = 0
KTH1 140552Z 02004KT 27/22 A3001 RMK A01 T02660219  RH  075%=      5-min Rain = 0
KTH1 140553Z 02004KT 27/22 A3001 RMK A01 T02660219  RH  075%=      5-min Rain = 0
KTH1 140554Z 02004KT 27/22 A3001 RMK A01 T02660219  RH  075%=      5-min Rain = 0
KTH1 140555Z 02004KT 27/22 A3001 RMK A01 T02660218  RH  075%=      5-min Rain = 0
KTH1 140556Z 03003KT 27/22 A3001 RMK A01 T02660219  RH  075%=      5-min Rain = 0
KTH1 140557Z 02004KT 27/22 A3001 RMK A01 T02660218  RH  075%=      5-min Rain = 0
KTH1 140558Z 02004KT 27/22 A3001 RMK A01 T02660218  RH  075%=      5-min Rain = 0
KTH1 140559Z 02003KT 27/22 A3001 RMK A01 T02660218  RH  075%=      5-min Rain = 0
KTH1 140600Z 03005KT 27/22 A3001 RMK A01 T02650218  RH  075%=      5-min Rain = 0
KTH1 140601Z 02004KT 27/22 A3001 RMK A01 T02650218  RH  075%=      5-min Rain = 0
KTH1 140602Z 03004KT 27/22 A3001 RMK A01 T02650218  RH  075%=      5-min Rain = 0
KTH1 140603Z 03005KT 27/22 A3001 RMK A01 T02650217  RH  075%=      5-min Rain = 0
KTH1 140604Z 03004KT 27/22 A3001 RMK A01 T02650217  RH  075%=      5-min Rain = 0
KTH1 140605Z 04003KT 27/22 A3001 RMK A01 T02650217  RH  075%=      5-min Rain = 0
KTH1 140606Z 03005KT 27/22 A3001 RMK A01 T02650217  RH  075%=      5-min Rain = 0
KTH1 140607Z 04005KT 27/22 A3001 RMK A01 T02650217  RH  075%=      5-min Rain = 0
KTH1 140608Z 04005KT 26/22 A3001 RMK A01 T02640217  RH  075%=      5-min Rain = 0
KTH1 140609Z 03005KT 27/22 A3001 RMK A01 T02650217  RH  075%=      5-min Rain = 0
KTH1 140610Z 03006KT 26/22 A3001 RMK A01 T02640217  RH  075%=      5-min Rain = 0
KTH1 140611Z 03005KT 26/22 A3001 RMK A01 T02640216  RH  075%=      5-min Rain = 0
KTH1 140612Z 03005KT 26/22 A3001 RMK A01 T02640216  RH  075%=      5-min Rain = 0
KTH1 140613Z 03004KT 26/22 A3001 RMK A01 T02640216  RH  075%=      5-min Rain = 0
KTH1 140614Z 04004KT 26/22 A3001 RMK A01 T02640216  RH  075%=      5-min Rain = 0
KTH1 140615Z 03006KT 26/22 A3001 RMK A01 T02640216  RH  075%=      5-min Rain = 0
KTH1 140616Z 03005KT 26/22 A3001 RMK A01 T02640216  RH  075%=      5-min Rain = 0
KTH1 140617Z 02005KT 26/22 A3001 RMK A01 T02640216  RH  075%=      5-min Rain = 0
KTH1 140618Z 02004KT 27/22 A3001 RMK A01 T02650217  RH  075%=      5-min Rain = 0
KTH1 140619Z 03003KT 26/22 A3001 RMK A01 T02640217  RH  075%=      5-min Rain = 0
KTH1 140620Z 04004KT 26/22 A3001 RMK A01 T02640216  RH  075%=      5-min Rain = 0
KTH1 140621Z 03005KT 26/22 A3001 RMK A01 T02640217  RH  075%=      5-min Rain = 0
KTH1 140622Z 02005KT 26/22 A3001 RMK A01 T02640216  RH  075%=      5-min Rain = 0
KTH1 140623Z 04003KT 26/22 A3001 RMK A01 T02640217  RH  075%=      5-min Rain = 0
KTH1 140624Z 04004KT 26/22 A3001 RMK A01 T02640216  RH  075%=      5-min Rain = 0
KTH1 140625Z 03004KT 26/22 A3001 RMK A01 T02630216  RH  075%=      5-min Rain = 0
KTH1 140626Z 04004KT 26/22 A3001 RMK A01 T02630216  RH  075%=      5-min Rain = 0
KTH1 140627Z 04005KT 26/22 A3001 RMK A01 T02630217  RH  076%=      5-min Rain = 0
KTH1 140628Z 03006KT 26/22 A3001 RMK A01 T02630216  RH  076%=      5-min Rain = 0
KTH1 140629Z 03004KT 26/22 A3001 RMK A01 T02630216  RH  076%=      5-min Rain = 0
KTH1 140630Z 04004KT 26/22 A3001 RMK A01 T02620216  RH  076%=      5-min Rain = 0
KTH1 140631Z 03005KT 26/22 A3001 RMK A01 T02620216  RH  076%=      5-min Rain = 0
KTH1 140632Z 04005KT 26/22 A3001 RMK A01 T02620216  RH  076%=      5-min Rain = 0
KTH1 140633Z 04004KT 26/22 A3001 RMK A01 T02620216  RH  076%=      5-min Rain = 0
KTH1 140634Z 04004KT 26/22 A3001 RMK A01 T02620216  RH  076%=      5-min Rain = 0
KTH1 140635Z 04005KT 26/22 A3001 RMK A01 T02620216  RH  076%=      5-min Rain = 0
KTH1 140636Z 04004KT 26/22 A3001 RMK A01 T02620216  RH  076%=      5-min Rain = 0
KTH1 140637Z 04005KT 26/22 A3001 RMK A01 T02620217  RH  076%=      5-min Rain = 0
KTH1 140638Z 04005KT 26/22 A3001 RMK A01 T02620217  RH  076%=      5-min Rain = 0
KTH1 140639Z 04005KT 26/22 A3001 RMK A01 T02620217  RH  076%=      5-min Rain = 0
KTH1 140640Z 04005KT 26/22 A3001 RMK A01 T02610216  RH  076%=      5-min Rain = 0
KTH1 140641Z 05005KT 26/22 A3001 RMK A01 T02620216  RH  076%=      5-min Rain = 0
KTH1 140642Z 04005KT 26/22 A3001 RMK A01 T02620217  RH  076%=      5-min Rain = 0
KTH1 140643Z 05004KT 26/22 A3001 RMK A01 T02620217  RH  076%=      5-min Rain = 0
KTH1 140644Z 05006KT 26/22 A3001 RMK A01 T02610217  RH  076%=      5-min Rain = 0
KTH1 140645Z 04005KT 26/22 A3001 RMK A01 T02610217  RH  076%=      5-min Rain = 0
KTH1 140646Z 05005KT 26/22 A3001 RMK A01 T02610217  RH  076%=      5-min Rain = 0
KTH1 140647Z 04006KT 26/22 A3001 RMK A01 T02610217  RH  076%=      5-min Rain = 0
KTH1 140648Z 04005KT 26/22 A3001 RMK A01 T02610217  RH  076%=      5-min Rain = 0
KTH1 140649Z 03005KT 26/22 A3001 RMK A01 T02610217  RH  077%=      5-min Rain = 0
KTH1 140650Z 03004KT 26/22 A3001 RMK A01 T02610217  RH  077%=      5-min Rain = 0
KTH1 140651Z 03005KT 26/22 A3001 RMK A01 T02600217  RH  077%=      5-min Rain = 0
KTH1 140652Z 03005KT 26/22 A3001 RMK A01 T02600217  RH  077%=      5-min Rain = 0
KTH1 140653Z 03005KT 26/22 A3001 RMK A01 T02600217  RH  077%=      5-min Rain = 0
KTH1 140654Z 03006KT 26/22 A3001 RMK A01 T02600217  RH  077%=      5-min Rain = 0
KTH1 140655Z 03006KT 26/22 A3001 RMK A01 T02600217  RH  077%=      5-min Rain = 0
KTH1 140656Z 03004KT 26/22 A3001 RMK A01 T02600217  RH  077%=      5-min Rain = 0
KTH1 140657Z 04004KT 26/22 A3001 RMK A01 T02600217  RH  077%=      5-min Rain = 0
KTH1 140658Z 03005KT 26/22 A3001 RMK A01 T02600217  RH  077%=      5-min Rain = 0
KTH1 140659Z 03005KT 26/22 A3001 RMK A01 T02600217  RH  077%=      5-min Rain = 0
KTH1 140700Z 03005KT 26/22 A3001 RMK A01 T02600217  RH  077%=      5-min Rain = 0
KTH1 140701Z 04005KT 26/22 A3001 RMK A01 T02600216  RH  077%=      5-min Rain = 0
KTH1 140702Z 03006KT 26/22 A3001 RMK A01 T02600216  RH  077%=      5-min Rain = 0
KTH1 140703Z 03005KT 26/22 A3001 RMK A01 T02610216  RH  076%=      5-min Rain = 0
KTH1 140704Z 03004KT 26/22 A3001 RMK A01 T02610216  RH  076%=      5-min Rain = 0
KTH1 140705Z 04004KT 26/22 A3001 RMK A01 T02610216  RH  076%=      5-min Rain = 0
KTH1 140706Z 03004KT 26/22 A3001 RMK A01 T02610216  RH  076%=      5-min Rain = 0
KTH1 140707Z 04005KT 26/22 A3001 RMK A01 T02610216  RH  076%=      5-min Rain = 0
KTH1 140708Z 04005KT 26/22 A3002 RMK A01 T02610215  RH  076%=      5-min Rain = 0
KTH1 140709Z 02006KT 26/22 A3002 RMK A01 T02610215  RH  076%=      5-min Rain = 0
KTH1 140710Z 03005KT 26/22 A3002 RMK A01 T02610215  RH  076%=      5-min Rain = 0
KTH1 140711Z 03006KT 26/22 A3002 RMK A01 T02610215  RH  076%=      5-min Rain = 0
KTH1 140712Z 02007KT 26/21 A3002 RMK A01 T02610214  RH  075%=      5-min Rain = 0
KTH1 140713Z 04007KT 26/21 A3002 RMK A01 T02610213  RH  075%=      5-min Rain = 0
KTH1 140714Z 03007KT 26/21 A3002 RMK A01 T02620213  RH  074%=      5-min Rain = 0
KTH1 140715Z 03004KT 26/21 A3002 RMK A01 T02620213  RH  074%=      5-min Rain = 0
KTH1 140716Z 04005KT 26/21 A3002 RMK A01 T02620213  RH  074%=      5-min Rain = 0
KTH1 140717Z 04006KT 26/21 A3002 RMK A01 T02620213  RH  074%=      5-min Rain = 0
KTH1 140718Z 04005KT 26/21 A3002 RMK A01 T02620213  RH  074%=      5-min Rain = 0
KTH1 140719Z 04005KT 26/21 A3002 RMK A01 T02620213  RH  074%=      5-min Rain = 0
KTH1 140720Z 03006KT 26/21 A3001 RMK A01 T02610212  RH  074%=      5-min Rain = 0
KTH1 140721Z 04005KT 26/21 A3001 RMK A01 T02610212  RH  074%=      5-min Rain = 0
KTH1 140722Z 03007KT 26/21 A3001 RMK A01 T02610212  RH  074%=      5-min Rain = 0
KTH1 140723Z 04005KT 26/21 A3001 RMK A01 T02610212  RH  074%=      5-min Rain = 0
KTH1 140724Z 04005KT 26/21 A3001 RMK A01 T02610212  RH  074%=      5-min Rain = 0
KTH1 140725Z 04006KT 26/21 A3001 RMK A01 T02610212  RH  074%=      5-min Rain = 0
KTH1 140726Z 05006KT 26/21 A3001 RMK A01 T02610212  RH  074%=      5-min Rain = 0
KTH1 140727Z 04004KT 26/21 A3001 RMK A01 T02600211  RH  074%=      5-min Rain = 0
KTH1 140728Z 03004KT 26/21 A3001 RMK A01 T02600212  RH  074%=      5-min Rain = 0
KTH1 140729Z 04005KT 26/21 A3001 RMK A01 T02600211  RH  075%=      5-min Rain = 0
KTH1 140730Z 04005KT 26/21 A3001 RMK A01 T02600211  RH  075%=      5-min Rain = 0
KTH1 140731Z 04005KT 26/21 A3001 RMK A01 T02590211  RH  075%=      5-min Rain = 0
KTH1 140732Z 05005KT 26/21 A3001 RMK A01 T02590211  RH  075%=      5-min Rain = 0
KTH1 140733Z 05004KT 26/21 A3001 RMK A01 T02590211  RH  075%=      5-min Rain = 0
KTH1 140734Z 05004KT 26/21 A3001 RMK A01 T02590211  RH  075%=      5-min Rain = 0
KTH1 140735Z 05004KT 26/21 A3001 RMK A01 T02580211  RH  075%=      5-min Rain = 0
KTH1 140736Z 06004KT 26/21 A3001 RMK A01 T02580211  RH  075%=      5-min Rain = 0
KTH1 140737Z 06004KT 26/21 A3001 RMK A01 T02580211  RH  075%=      5-min Rain = 0
KTH1 140738Z 06003KT 26/21 A3001 RMK A01 T02570211  RH  075%=      5-min Rain = 0
KTH1 140739Z 06003KT 26/21 A30 RMK A01 T02570211  RH  075%=      5-min Rain = 0
KTH1 140740Z 07003KT 26/21 A30 RMK A01 T02570211  RH  076%=      5-min Rain = 0
KTH1 140741Z 06003KT 26/21 A30 RMK A01 T02570211  RH  076%=      5-min Rain = 0
KTH1 140742Z 06003KT 26/21 A30 RMK A01 T02560211  RH  076%=      5-min Rain = 0
KTH1 140743Z 05003KT 26/21 A30 RMK A01 T02560211  RH  076%=      5-min Rain = 0
KTH1 140744Z 06003KT 26/21 A30 RMK A01 T02550211  RH  076%=      5-min Rain = 0
KTH1 140745Z 05004KT 26/21 A30 RMK A01 T02550210  RH  076%=      5-min Rain = 0
KTH1 140746Z 06003KT 26/21 A30 RMK A01 T02550211  RH  077%=      5-min Rain = 0
KTH1 140747Z 06003KT 25/21 A30 RMK A01 T02540210  RH  077%=      5-min Rain = 0
KTH1 140748Z 06004KT 25/21 A30 RMK A01 T02540210  RH  077%=      5-min Rain = 0
KTH1 140749Z 06004KT 25/21 A30 RMK A01 T02530210  RH  077%=      5-min Rain = 0
KTH1 140750Z 06003KT 25/21 A30 RMK A01 T02530211  RH  077%=      5-min Rain = 0
KTH1 140751Z 06003KT 25/21 A30 RMK A01 T02530211  RH  077%=      5-min Rain = 0
KTH1 140752Z 05004KT 25/21 A30 RMK A01 T02530210  RH  077%=      5-min Rain = 0
KTH1 140753Z 06003KT 25/21 A30 RMK A01 T02520210  RH  078%=      5-min Rain = 0
KTH1 140754Z 06004KT 25/21 A30 RMK A01 T02520210  RH  078%=      5-min Rain = 0
KTH1 140755Z 06004KT 25/21 A30 RMK A01 T02520210  RH  078%=      5-min Rain = 0
KTH1 140756Z 05003KT 25/21 A30 RMK A01 T02520210  RH  078%=      5-min Rain = 0
KTH1 140757Z 05004KT 25/21 A30 RMK A01 T02510210  RH  078%=      5-min Rain = 0
KTH1 140758Z 05003KT 25/21 A30 RMK A01 T02510210  RH  078%=      5-min Rain = 0
KTH1 140759Z 04004KT 25/21 A30 RMK A01 T02510210  RH  078%=      5-min Rain = 0
KTH1 140800Z 03005KT 25/21 A30 RMK A01 T02510211  RH  078%=      5-min Rain = 0
KTH1 140801Z 03005KT 25/21 A3001 RMK A01 T02510211  RH  078%=      5-min Rain = 0
KTH1 140802Z 03005KT 25/21 A3001 RMK A01 T02510211  RH  078%=      5-min Rain = 0
KTH1 140803Z 03005KT 25/21 A3001 RMK A01 T02510211  RH  078%=      5-min Rain = 0
KTH1 140804Z 03005KT 25/21 A3001 RMK A01 T02500211  RH  078%=      5-min Rain = 0
KTH1 140805Z 02005KT 25/21 A3001 RMK A01 T02510211  RH  079%=      5-min Rain = 0
KTH1 140806Z 03005KT 25/21 A3001 RMK A01 T02510211  RH  079%=      5-min Rain = 0
KTH1 140807Z 03005KT 25/21 A3001 RMK A01 T02500211  RH  079%=      5-min Rain = 0
KTH1 140808Z 02006KT 25/21 A3001 RMK A01 T02510211  RH  079%=      5-min Rain = 0
KTH1 140809Z 02005KT 25/21 A3002 RMK A01 T02510211  RH  078%=      5-min Rain = 0
KTH1 140810Z 03006KT 25/21 A3002 RMK A01 T02520211  RH  078%=      5-min Rain = 0
KTH1 140811Z 02005KT 25/21 A3002 RMK A01 T02520211  RH  078%=      5-min Rain = 0
KTH1 140812Z 02005KT 25/21 A3002 RMK A01 T02520211  RH  078%=      5-min Rain = 0
KTH1 140813Z 02006KT 25/21 A3002 RMK A01 T02530211  RH  078%=      5-min Rain = 0
KTH1 140814Z 02005KT 25/21 A3002 RMK A01 T02530211  RH  078%=      5-min Rain = 0
KTH1 140815Z 02006KT 25/21 A3002 RMK A01 T02530211  RH  078%=      5-min Rain = 0
KTH1 140816Z 02006KT 25/21 A3002 RMK A01 T02530211  RH  078%=      5-min Rain = 0
KTH1 140817Z 02005KT 25/21 A3002 RMK A01 T02530211  RH  077%=      5-min Rain = 0
KTH1 140818Z 03005KT 25/21 A3002 RMK A01 T02530211  RH  077%=      5-min Rain = 0
KTH1 140819Z 03005KT 25/21 A3002 RMK A01 T02530211  RH  077%=      5-min Rain = 0
KTH1 140820Z 03003KT 25/21 A3002 RMK A01 T02540211  RH  077%=      5-min Rain = 0
KTH1 140821Z 03003KT 25/21 A3002 RMK A01 T02540211  RH  077%=      5-min Rain = 0
KTH1 140822Z 02004KT 25/21 A3001 RMK A01 T02540211  RH  077%=      5-min Rain = 0
KTH1 140823Z 03006KT 25/21 A3001 RMK A01 T02540211  RH  077%=      5-min Rain = 0
KTH1 140824Z 02006KT 25/21 A3001 RMK A01 T02540211  RH  077%=      5-min Rain = 0
KTH1 140825Z 03006KT 26/21 A3001 RMK A01 T02550211  RH  077%=      5-min Rain = 0
KTH1 140826Z 03007KT 26/21 A3001 RMK A01 T02550211  RH  077%=      5-min Rain = 0
KTH1 140827Z 03006KT 26/21 A3001 RMK A01 T02550211  RH  077%=      5-min Rain = 0
KTH1 140828Z 02004KT 26/21 A3001 RMK A01 T02550211  RH  077%=      5-min Rain = 0
KTH1 140829Z 02005KT 26/21 A3001 RMK A01 T02550211  RH  077%=      5-min Rain = 0
KTH1 140830Z 03005KT 26/21 A3001 RMK A01 T02550211  RH  077%=      5-min Rain = 0
KTH1 140831Z 02005KT 26/21 A3001 RMK A01 T02550211  RH  077%=      5-min Rain = 0
KTH1 140832Z 02005KT 26/21 A3001 RMK A01 T02550211  RH  077%=      5-min Rain = 0
KTH1 140833Z 02006KT 26/21 A3001 RMK A01 T02550212  RH  077%=      5-min Rain = 0
KTH1 140834Z 03005KT 26/21 A3001 RMK A01 T02550212  RH  077%=      5-min Rain = 0
KTH1 140835Z 02004KT 26/21 A3001 RMK A01 T02550212  RH  077%=      5-min Rain = 0
KTH1 140836Z 03005KT 26/21 A3001 RMK A01 T02550212  RH  077%=      5-min Rain = 0
KTH1 140837Z 03004KT 25/21 A3001 RMK A01 T02540211  RH  077%=      5-min Rain = 0
KTH1 140838Z 02007KT 26/21 A3001 RMK A01 T02550212  RH  077%=      5-min Rain = 0
KTH1 140839Z 03007KT 25/21 A3001 RMK A01 T02540211  RH  077%=      5-min Rain = 0
KTH1 140840Z 02007KT 25/21 A3001 RMK A01 T02540212  RH  077%=      5-min Rain = 0
KTH1 140841Z 03008KT 25/21 A3001 RMK A01 T02540212  RH  077%=      5-min Rain = 0
KTH1 140842Z 03008KT 25/21 A3001 RMK A01 T02540211  RH  077%=      5-min Rain = 0
KTH1 140843Z 03006KT 25/21 A3001 RMK A01 T02540212  RH  077%=      5-min Rain = 0
KTH1 140844Z 03005KT 25/21 A3002 RMK A01 T02540212  RH  077%=      5-min Rain = 0
KTH1 140845Z 03007KT 25/21 A3002 RMK A01 T02540212  RH  077%=      5-min Rain = 0
KTH1 140846Z 02008KT 25/21 A3002 RMK A01 T02540212  RH  077%=      5-min Rain = 0
KTH1 140847Z 03006KT 25/21 A3002 RMK A01 T02540212  RH  077%=      5-min Rain = 0
KTH1 140848Z 03006KT 25/21 A3002 RMK A01 T02540212  RH  078%=      5-min Rain = 0
KTH1 140849Z 03008KT 25/21 A3002 RMK A01 T02540212  RH  078%=      5-min Rain = 0
KTH1 140850Z 03005KT 25/21 A3002 RMK A01 T02540212  RH  078%=      5-min Rain = 0
KTH1 140851Z 03006KT 25/21 A3002 RMK A01 T02540213  RH  078%=      5-min Rain = 0
KTH1 140852Z 03006KT 25/21 A3002 RMK A01 T02530213  RH  078%=      5-min Rain = 0
KTH1 140853Z 03006KT 25/21 A3002 RMK A01 T02530213  RH  078%=      5-min Rain = 0
KTH1 140854Z 02006KT 25/21 A3002 RMK A01 T02530213  RH  079%=      5-min Rain = 0
KTH1 140855Z 03008KT 25/21 A3002 RMK A01 T02530213  RH  079%=      5-min Rain = 0
KTH1 140856Z 03008KT 25/21 A3002 RMK A01 T02530213  RH  079%=      5-min Rain = 0
KTH1 140857Z 03008KT 25/21 A3002 RMK A01 T02530214  RH  079%=      5-min Rain = 0
KTH1 140858Z 03009KT 25/21 A3002 RMK A01 T02530214  RH  079%=      5-min Rain = 0
KTH1 140859Z 03009KT 25/21 A3002 RMK A01 T02530214  RH  079%=      5-min Rain = 0
KTH1 140900Z 03007KT 25/21 A3002 RMK A01 T02530214  RH  079%=      5-min Rain = 0
KTH1 140901Z 03007KT 25/21 A3002 RMK A01 T02530214  RH  079%=      5-min Rain = 0
KTH1 140902Z 02007KT 25/21 A3002 RMK A01 T02530214  RH  079%=      5-min Rain = 0
KTH1 140903Z 03008G13KT 25/21 A3002 RMK A01 T02530214  RH  079%=      5-min Rain = 0
KTH1 140904Z 03010G15KT 25/21 A3002 RMK A01 T02530214  RH  079%=      5-min Rain = 0
KTH1 140905Z 03006KT 25/22 A3002 RMK A01 T02530215  RH  079%=      5-min Rain = 0
KTH1 140906Z 04007KT 25/21 A3002 RMK A01 T02530214  RH  079%=      5-min Rain = 0
KTH1 140907Z 04007KT 25/22 A3002 RMK A01 T02530215  RH  079%=      5-min Rain = 0
KTH1 140908Z 04007KT 25/22 A3002 RMK A01 T02530215  RH  079%=      5-min Rain = 0
KTH1 140909Z 04009G14KT 25/22 A3002 RMK A01 T02530215  RH  079%=      5-min Rain = 0
KTH1 140910Z 04010KT 25/22 A3002 RMK A01 T02530216  RH  080%=      5-min Rain = 0
KTH1 140911Z 04010KT 25/22 A3002 RMK A01 T02530216  RH  080%=      5-min Rain = 0
KTH1 140912Z 02008G13KT 25/22 A3002 RMK A01 T02530216  RH  080%=      5-min Rain = 0
KTH1 140913Z 03009KT 25/22 A3002 RMK A01 T02530216  RH  080%=      5-min Rain = 0
KTH1 140914Z 04008KT 25/22 A3002 RMK A01 T02530216  RH  080%=      5-min Rain = 0
KTH1 140915Z 04009KT 25/22 A3003 RMK A01 T02530216  RH  080%=      5-min Rain = 0
KTH1 140916Z 04010G15KT 25/22 A3003 RMK A01 T02530217  RH  080%=      5-min Rain = 0
KTH1 140917Z 05010KT 25/22 A3003 RMK A01 T02530217  RH  080%=      5-min Rain = 0
KTH1 140918Z 03009G14KT 25/22 A3003 RMK A01 T02530217  RH  081%=      5-min Rain = 0
KTH1 140919Z 04009KT 25/22 A3003 RMK A01 T02530217  RH  081%=      5-min Rain = 0
KTH1 140920Z 05007KT 25/22 A3003 RMK A01 T02530217  RH  081%=      5-min Rain = 0
KTH1 140921Z 04006KT 25/22 A3002 RMK A01 T02530218  RH  081%=      5-min Rain = 0
KTH1 140922Z 05011KT 25/22 A3002 RMK A01 T02530218  RH  081%=      5-min Rain = 0
KTH1 140923Z 05008KT 25/22 A3002 RMK A01 T02530218  RH  081%=      5-min Rain = 0
KTH1 140924Z 05009KT 25/22 A3003 RMK A01 T02530218  RH  081%=      5-min Rain = 0
KTH1 140925Z 04008G14KT 25/22 A3003 RMK A01 T02530218  RH  081%=      5-min Rain = 0
KTH1 140926Z 03008KT 25/22 A3003 RMK A01 T02520218  RH  081%=      5-min Rain = 0
KTH1 140927Z 04009KT 25/22 A3003 RMK A01 T02520218  RH  081%=      5-min Rain = 0
KTH1 140928Z 04010KT 25/22 A3003 RMK A01 T02520218  RH  081%=      5-min Rain = 0
KTH1 140929Z 03010KT 25/22 A3003 RMK A01 T02520219  RH  081%=      5-min Rain = 0
KTH1 140930Z 04006KT 25/22 A3003 RMK A01 T02520218  RH  082%=      5-min Rain = 0
KTH1 140931Z 05006KT 25/22 A3003 RMK A01 T02530219  RH  082%=      5-min Rain = 0
KTH1 140932Z 04008KT 25/22 A3003 RMK A01 T02520218  RH  082%=      5-min Rain = 0
KTH1 140933Z 04006KT 25/22 A3003 RMK A01 T02520219  RH  082%=      5-min Rain = 0
KTH1 140934Z 05005KT 25/22 A3003 RMK A01 T02520219  RH  082%=      5-min Rain = 0
KTH1 140935Z 04006KT 25/22 A3003 RMK A01 T02510219  RH  082%=      5-min Rain = 0
KTH1 140936Z 05008KT 25/22 A3003 RMK A01 T02510219  RH  082%=      5-min Rain = 0
KTH1 140937Z 05008KT 25/22 A3003 RMK A01 T02510219  RH  082%=      5-min Rain = 0
KTH1 140938Z 05007KT 25/22 A3003 RMK A01 T02520219  RH  082%=      5-min Rain = 0
KTH1 140939Z 05008KT 25/22 A3003 RMK A01 T02520220  RH  082%=      5-min Rain = 0
KTH1 140940Z 04006KT 25/22 A3003 RMK A01 T02520220  RH  082%=      5-min Rain = 0
KTH1 140941Z 05009KT 25/22 A3003 RMK A01 T02510220  RH  083%=      5-min Rain = 0
KTH1 140942Z 05008KT 25/22 A3002 RMK A01 T02510220  RH  083%=      5-min Rain = 0
KTH1 140943Z 06008KT 25/22 A3002 RMK A01 T02510220  RH  083%=      5-min Rain = 0
KTH1 140944Z 06008KT 25/22 A3002 RMK A01 T02510220  RH  083%=      5-min Rain = 0
KTH1 140945Z 05008KT 25/22 A3002 RMK A01 T02510220  RH  083%=      5-min Rain = 0
KTH1 140946Z 05007KT 25/22 A3002 RMK A01 T02510220  RH  083%=      5-min Rain = 0
KTH1 140947Z 06007KT 25/22 A3002 RMK A01 T02510220  RH  083%=      5-min Rain = 0
KTH1 140948Z 06007KT 25/22 A3002 RMK A01 T02510220  RH  083%=      5-min Rain = 0
KTH1 140949Z 05009KT 25/22 A3002 RMK A01 T02500220  RH  084%=      5-min Rain = 0
KTH1 140950Z 06007KT 25/22 A3002 RMK A01 T02500221  RH  084%=      5-min Rain = 0
KTH1 140951Z 06007KT 25/22 A3002 RMK A01 T02500221  RH  084%=      5-min Rain = 0
KTH1 140952Z 06008KT 25/22 A3002 RMK A01 T02500221  RH  084%=      5-min Rain = 0
KTH1 140953Z 05009KT 25/22 A3002 RMK A01 T02500221  RH  084%=      5-min Rain = 0
KTH1 140954Z 05006KT 25/22 A3002 RMK A01 T02500221  RH  084%=      5-min Rain = 0
KTH1 140955Z 05007KT 25/22 A3002 RMK A01 T02490221  RH  084%=      5-min Rain = 0
KTH1 140956Z 06008KT 25/22 A3002 RMK A01 T02500221  RH  084%=      5-min Rain = 0
KTH1 140957Z 06008KT 25/22 A3002 RMK A01 T02500221  RH  084%=      5-min Rain = 0
KTH1 140958Z 06008KT 25/22 A3002 RMK A01 T02500221  RH  084%=      5-min Rain = 0
KTH1 140959Z 05008KT 25/22 A3002 RMK A01 T02500221  RH  084%=      5-min Rain = 0
KTH1 141000Z 05008KT 25/22 A3002 RMK A01 T02500221  RH  084%=      5-min Rain = 0
KTH1 141001Z 06007KT 25/22 A3002 RMK A01 T02500221  RH  084%=      5-min Rain = 0
KTH1 141002Z 05008G14KT 25/22 A3002 RMK A01 T02490221  RH  084%=      5-min Rain = 0
KTH1 141003Z 04009KT 25/22 A3002 RMK A01 T02490221  RH  084%=      5-min Rain = 0
KTH1 141004Z 06006KT 25/22 A3003 RMK A01 T02490221  RH  084%=      5-min Rain = 0
KTH1 141005Z 06009KT 25/22 A3003 RMK A01 T02490221  RH  084%=      5-min Rain = 0
KTH1 141006Z 05007KT 25/22 A3003 RMK A01 T02490221  RH  084%=      5-min Rain = 0
KTH1 141007Z 05007KT 25/22 A3003 RMK A01 T02490221  RH  084%=      5-min Rain = 0
KTH1 141008Z 04010KT 25/22 A3003 RMK A01 T02490221  RH  084%=      5-min Rain = 0
KTH1 141009Z 06008KT 25/22 A3003 RMK A01 T02490220  RH  084%=      5-min Rain = 0
KTH1 141010Z 05008KT 25/22 A3003 RMK A01 T02490220  RH  084%=      5-min Rain = 0
KTH1 141011Z 06010KT 25/22 A3003 RMK A01 T02490220  RH  084%=      5-min Rain = 0
KTH1 141012Z 06007KT 25/22 A3003 RMK A01 T02490220  RH  084%=      5-min Rain = 0
KTH1 141013Z 06009KT 25/22 A3003 RMK A01 T02490220  RH  084%=      5-min Rain = 0
KTH1 141014Z 05008KT 25/22 A3003 RMK A01 T02490220  RH  084%=      5-min Rain = 0
KTH1 141015Z 06008KT 25/22 A3003 RMK A01 T02490219  RH  084%=      5-min Rain = 0
KTH1 141016Z 06009KT 25/22 A3003 RMK A01 T02490219  RH  083%=      5-min Rain = 0
KTH1 141017Z 06010KT 25/22 A3003 RMK A01 T02490219  RH  083%=      5-min Rain = 0
KTH1 141018Z 06009KT 25/22 A3003 RMK A01 T02490219  RH  083%=      5-min Rain = 0
KTH1 141019Z 06010KT 25/22 A3003 RMK A01 T02490219  RH  083%=      5-min Rain = 0
KTH1 141020Z 06007KT 25/22 A3003 RMK A01 T02490219  RH  083%=      5-min Rain = 0
KTH1 141021Z 06007KT 25/22 A3003 RMK A01 T02490219  RH  083%=      5-min Rain = 0
KTH1 141022Z 07010KT 25/22 A3003 RMK A01 T02490219  RH  084%=      5-min Rain = 0
KTH1 141023Z 06011KT 25/22 A3002 RMK A01 T02490220  RH  084%=      5-min Rain = 0
KTH1 141024Z 07009KT 25/22 A3002 RMK A01 T02480220  RH  084%=      5-min Rain = 0
KTH1 141025Z 06009KT 25/22 A3002 RMK A01 T02480220  RH  084%=      5-min Rain = 0
KTH1 141026Z 08008KT 25/22 A3003 RMK A01 T02480220  RH  084%=      5-min Rain = 0
KTH1 141027Z 06008KT 25/22 A3003 RMK A01 T02480220  RH  084%=      5-min Rain = 0
KTH1 141028Z 07008KT 25/22 A3003 RMK A01 T02480220  RH  085%=      5-min Rain = 0
KTH1 141029Z 07009KT 25/22 A3003 RMK A01 T02470220  RH  085%=      5-min Rain = 0
KTH1 141030Z 07010KT 25/22 A3003 RMK A01 T02470220  RH  085%=      5-min Rain = 0
KTH1 141031Z 07009KT 25/22 A3003 RMK A01 T02470220  RH  085%=      5-min Rain = 0
KTH1 141032Z 07007KT 25/22 A3003 RMK A01 T02470220  RH  085%=      5-min Rain = 0
KTH1 141033Z 08007KT 25/22 A3003 RMK A01 T02470220  RH  085%=      5-min Rain = 0
KTH1 141034Z 07006KT 25/22 A3003 RMK A01 T02460220  RH  085%=      5-min Rain = 0
KTH1 141035Z 08008G14KT 25/22 A3003 RMK A01 T02460220  RH  086%=      5-min Rain = 0
KTH1 141036Z 07008KT 25/22 A3003 RMK A01 T02460221  RH  086%=      5-min Rain = 0
KTH1 141037Z 07006KT 25/22 A3003 RMK A01 T02460221  RH  086%=      5-min Rain = 0
KTH1 141038Z 07009KT 25/22 A3003 RMK A01 T02450220  RH  086%=      5-min Rain = 0
KTH1 141039Z 08007KT 25/22 A3003 RMK A01 T02450221  RH  086%=      5-min Rain = 0
KTH1 141040Z 07009KT 25/22 A3003 RMK A01 T02460221  RH  086%=      5-min Rain = 0
KTH1 141041Z 07008KT 25/22 A3003 RMK A01 T02460221  RH  086%=      5-min Rain = 0
KTH1 141042Z 07007KT 25/22 A3003 RMK A01 T02450221  RH  086%=      5-min Rain = 0
KTH1 141043Z 07005KT 25/22 A3003 RMK A01 T02450221  RH  086%=      5-min Rain = 0
KTH1 141044Z 07008KT 25/22 A3003 RMK A01 T02450221  RH  087%=      5-min Rain = 0
KTH1 141045Z 07009KT 25/22 A3003 RMK A01 T02450221  RH  087%=      5-min Rain = 0
KTH1 141046Z 07008KT 25/22 A3003 RMK A01 T02450221  RH  087%=      5-min Rain = 0
KTH1 141047Z 07008KT 25/22 A3003 RMK A01 T02450221  RH  087%=      5-min Rain = 0
KTH1 141048Z 07009KT 25/22 A3003 RMK A01 T02450222  RH  087%=      5-min Rain = 0
KTH1 141049Z 06007KT 25/22 A3003 RMK A01 T02450222  RH  087%=      5-min Rain = 0
KTH1 141050Z 07009KT 24/22 A3003 RMK A01 T02440222  RH  087%=      5-min Rain = 0
KTH1 141051Z 06010KT 24/22 A3003 RMK A01 T02440222  RH  087%=      5-min Rain = 0
KTH1 141052Z 06008KT 24/22 A3004 RMK A01 T02440222  RH  087%=      5-min Rain = 0
KTH1 141053Z 06008KT 24/22 A3004 RMK A01 T02440222  RH  087%=      5-min Rain = 0
KTH1 141054Z 06008KT 24/22 A3004 RMK A01 T02440222  RH  087%=      5-min Rain = 0
KTH1 141055Z 06008KT 24/22 A3004 RMK A01 T02440222  RH  088%=      5-min Rain = 0
KTH1 141056Z 06007KT 24/22 A3004 RMK A01 T02440222  RH  088%=      5-min Rain = 0
KTH1 141057Z 06007KT 24/22 A3004 RMK A01 T02430222  RH  088%=      5-min Rain = 0
KTH1 141058Z 06007KT 24/22 A3004 RMK A01 T02430222  RH  088%=      5-min Rain = 0
KTH1 141059Z 06006KT 24/22 A3003 RMK A01 T02430222  RH  088%=      5-min Rain = 0
KTH1 141100Z 06006KT 24/22 A3003 RMK A01 T02430222  RH  088%=      5-min Rain = 0
KTH1 141101Z 06006KT 24/22 A3003 RMK A01 T02430222  RH  088%=      5-min Rain = 0
KTH1 141102Z 06006KT 24/22 A3003 RMK A01 T02430222  RH  088%=      5-min Rain = 0
KTH1 141103Z 06006KT 24/22 A3004 RMK A01 T02430223  RH  088%=      5-min Rain = 0
KTH1 141104Z 07007KT 24/22 A3003 RMK A01 T02420222  RH  088%=      5-min Rain = 0
KTH1 141105Z 06007KT 24/22 A3003 RMK A01 T02420222  RH  088%=      5-min Rain = 0
KTH1 141106Z 06007KT 24/22 A3003 RMK A01 T02420222  RH  089%=      5-min Rain = 0
KTH1 141107Z 06007KT 24/22 A3004 RMK A01 T02420222  RH  089%=      5-min Rain = 0
KTH1 141108Z 06006KT 24/22 A3004 RMK A01 T02420222  RH  089%=      5-min Rain = 0
KTH1 141109Z 06006KT 24/22 A3004 RMK A01 T02420222  RH  089%=      5-min Rain = 0
KTH1 141110Z 06006KT 24/22 A3004 RMK A01 T02420222  RH  089%=      5-min Rain = 0
KTH1 141111Z 06007KT 24/22 A3004 RMK A01 T02410222  RH  089%=      5-min Rain = 0
KTH1 141112Z 07007KT 24/22 A3004 RMK A01 T02410223  RH  089%=      5-min Rain = 0
KTH1 141113Z 07006KT 24/22 A3004 RMK A01 T02410222  RH  089%=      5-min Rain = 0
KTH1 141114Z 07006KT 24/22 A3004 RMK A01 T02410222  RH  089%=      5-min Rain = 0
KTH1 141115Z 07006KT 24/22 A3004 RMK A01 T02410222  RH  089%=      5-min Rain = 0
KTH1 141116Z 07006KT 24/22 A3004 RMK A01 T02410222  RH  089%=      5-min Rain = 0
KTH1 141117Z 06007KT 24/22 A3004 RMK A01 T02410222  RH  089%=      5-min Rain = 0
KTH1 141118Z 06005KT 24/22 A3004 RMK A01 T02400222  RH  090%=      5-min Rain = 0
KTH1 141119Z 06006KT 24/22 A3004 RMK A01 T02400222  RH  090%=      5-min Rain = 0
KTH1 141120Z 06005KT 24/22 A3004 RMK A01 T02400222  RH  090%=      5-min Rain = 0
KTH1 141121Z 07006KT 24/22 A3004 RMK A01 T02410222  RH  090%=      5-min Rain = 0
KTH1 141122Z 06005KT 24/22 A3004 RMK A01 T02400222  RH  090%=      5-min Rain = 0
KTH1 141123Z 07006KT 24/22 A3004 RMK A01 T02400223  RH  090%=      5-min Rain = 0
KTH1 141124Z 06005KT 24/22 A3004 RMK A01 T02400222  RH  090%=      5-min Rain = 0
KTH1 141125Z 06005KT 24/22 A3005 RMK A01 T02400222  RH  090%=      5-min Rain = 0
KTH1 141126Z 06006KT 24/22 A3005 RMK A01 T02400222  RH  090%=      5-min Rain = 0
KTH1 141127Z 05006KT 24/22 A3005 RMK A01 T02400222  RH  090%=      5-min Rain = 0
KTH1 141128Z 06006KT 24/22 A3005 RMK A01 T02400222  RH  090%=      5-min Rain = 0
KTH1 141129Z 06006KT 24/22 A3005 RMK A01 T02400222  RH  090%=      5-min Rain = 0
KTH1 141130Z 06006KT 24/22 A3005 RMK A01 T02400222  RH  090%=      5-min Rain = 0
KTH1 141131Z 06006KT 24/22 A3005 RMK A01 T02390222  RH  090%=      5-min Rain = 0
KTH1 141132Z 06006KT 24/22 A3005 RMK A01 T02400222  RH  090%=      5-min Rain = 0
KTH1 141133Z 07006KT 24/22 A3005 RMK A01 T02400222  RH  090%=      5-min Rain = 0
KTH1 141134Z 06007KT 24/22 A3005 RMK A01 T02400222  RH  090%=      5-min Rain = 0
KTH1 141135Z 06007KT 24/22 A3005 RMK A01 T02400222  RH  090%=      5-min Rain = 0
KTH1 141136Z 06006KT 24/22 A3005 RMK A01 T02390222  RH  090%=      5-min Rain = 0
KTH1 141137Z 06007KT 24/22 A3005 RMK A01 T02400222  RH  090%=      5-min Rain = 0
KTH1 141138Z 06007KT 24/22 A3005 RMK A01 T02400222  RH  090%=      5-min Rain = 0
KTH1 141139Z 06005KT 24/22 A3005 RMK A01 T02400222  RH  090%=      5-min Rain = 0
KTH1 141140Z 06008KT 24/22 A3005 RMK A01 T02400222  RH  090%=      5-min Rain = 0
KTH1 141141Z 06007KT 24/22 A3005 RMK A01 T02400222  RH  090%=      5-min Rain = 0
KTH1 141142Z 07007KT 24/22 A3005 RMK A01 T02390222  RH  090%=      5-min Rain = 0
KTH1 141143Z 06008KT 24/22 A3005 RMK A01 T02400222  RH  090%=      5-min Rain = 0
KTH1 141144Z 06007KT 24/22 A3005 RMK A01 T02400222  RH  090%=      5-min Rain = 0
KTH1 141145Z 06007KT 24/22 A3005 RMK A01 T02400222  RH  090%=      5-min Rain = 0
KTH1 141146Z 06007KT 24/22 A3005 RMK A01 T02400222  RH  090%=      5-min Rain = 0
KTH1 141147Z 05007KT 24/22 A3005 RMK A01 T02390221  RH  090%=      5-min Rain = 0
KTH1 141148Z 06007KT 24/22 A3005 RMK A01 T02390221  RH  090%=      5-min Rain = 0
KTH1 141149Z 06006KT 24/22 A3005 RMK A01 T02390221  RH  090%=      5-min Rain = 0
KTH1 141150Z 05007KT 24/22 A3005 RMK A01 T02390221  RH  090%=      5-min Rain = 0
KTH1 141151Z 06004KT 24/22 A3005 RMK A01 T02390221  RH  090%=      5-min Rain = 0
KTH1 141152Z 06005KT 24/22 A3005 RMK A01 T02390221  RH  090%=      5-min Rain = 0
KTH1 141153Z 05006KT 24/22 A3005 RMK A01 T02390221  RH  090%=      5-min Rain = 0
KTH1 141154Z 05006KT 24/22 A3005 RMK A01 T02390221  RH  090%=      5-min Rain = 0
KTH1 141155Z 05005KT 24/22 A3005 RMK A01 T02390221  RH  090%=      5-min Rain = 0
KTH1 141156Z 05004KT 24/22 A3005 RMK A01 T02390221  RH  090%=      5-min Rain = 0
KTH1 141157Z 05005KT 24/22 A3005 RMK A01 T02380221  RH  090%=      5-min Rain = 0
KTH1 141158Z 05007KT 24/22 A3006 RMK A01 T02380221  RH  090%=      5-min Rain = 0
KTH1 141159Z 05006KT 24/22 A3006 RMK A01 T02380221  RH  090%=      5-min Rain = 0
KTH1 141200Z 04006KT 24/22 A3006 RMK A01 T02380221  RH  090%=      5-min Rain = 0
KTH1 141201Z 04005KT 24/22 A3006 RMK A01 T02380221  RH  090%=      5-min Rain = 0
KTH1 141202Z 04005KT 24/22 A3006 RMK A01 T02380221  RH  090%=      5-min Rain = 0
KTH1 141203Z 04004KT 24/22 A3006 RMK A01 T02380221  RH  090%=      5-min Rain = 0
KTH1 141204Z 04004KT 24/22 A3006 RMK A01 T02380221  RH  091%=      5-min Rain = 0
KTH1 141205Z 04005KT 24/22 A3006 RMK A01 T02370221  RH  091%=      5-min Rain = 0
KTH1 141206Z 04005KT 24/22 A3006 RMK A01 T02370221  RH  091%=      5-min Rain = 0
KTH1 141207Z 03005KT 24/22 A3006 RMK A01 T02370221  RH  091%=      5-min Rain = 0
KTH1 141208Z 04005KT 24/22 A3006 RMK A01 T02360221  RH  091%=      5-min Rain = 0
KTH1 141209Z 04005KT 24/22 A3006 RMK A01 T02360222  RH  091%=      5-min Rain = 0
KTH1 141210Z 04005KT 24/22 A3006 RMK A01 T02360222  RH  091%=      5-min Rain = 0
KTH1 141211Z 03005KT 24/22 A3006 RMK A01 T02360221  RH  092%=      5-min Rain = 0
KTH1 141212Z 04005KT 24/22 A3006 RMK A01 T02360222  RH  092%=      5-min Rain = 0
KTH1 141213Z 04005KT 24/22 A3006 RMK A01 T02360222  RH  092%=      5-min Rain = 0
KTH1 141214Z 04005KT 24/22 A3006 RMK A01 T02360222  RH  092%=      5-min Rain = 0
KTH1 141215Z 04004KT 24/22 A3006 RMK A01 T02360222  RH  092%=      5-min Rain = 0
KTH1 141216Z 04004KT 24/22 A3006 RMK A01 T02360222  RH  092%=      5-min Rain = 0
KTH1 141217Z 04005KT 24/22 A3006 RMK A01 T02350222  RH  092%=      5-min Rain = 0
KTH1 141218Z 06005KT 24/22 A3006 RMK A01 T02360222  RH  092%=      5-min Rain = 0
KTH1 141219Z 06004KT 24/22 A3006 RMK A01 T02350222  RH  092%=      5-min Rain = 0
KTH1 141220Z 06006KT 24/22 A3006 RMK A01 T02360222  RH  092%=      5-min Rain = 0
KTH1 141221Z 05004KT 24/22 A3006 RMK A01 T02350222  RH  092%=      5-min Rain = 0
KTH1 141222Z 06003KT 24/22 A3006 RMK A01 T02350222  RH  092%=      5-min Rain = 0
KTH1 141223Z 07005KT 24/22 A3006 RMK A01 T02360222  RH  092%=      5-min Rain = 0
KTH1 141224Z 07004KT 24/22 A3005 RMK A01 T02360222  RH  092%=      5-min Rain = 0
KTH1 141225Z 06004KT 24/22 A3005 RMK A01 T02350222  RH  092%=      5-min Rain = 0
KTH1 141226Z 06005KT 24/22 A3005 RMK A01 T02350222  RH  092%=      5-min Rain = 0
KTH1 141227Z 05004KT 24/22 A3005 RMK A01 T02350222  RH  092%=      5-min Rain = 0
KTH1 141228Z 06004KT 24/22 A3005 RMK A01 T02360222  RH  092%=      5-min Rain = 0
KTH1 141229Z 05004KT 24/22 A3005 RMK A01 T02350222  RH  092%=      5-min Rain = 0
KTH1 141230Z 06003KT 24/22 A3005 RMK A01 T02360222  RH  092%=      5-min Rain = 0
KTH1 141231Z 07004KT 24/22 A3005 RMK A01 T02350222  RH  092%=      5-min Rain = 0
KTH1 141232Z 07004KT 24/22 A3005 RMK A01 T02350222  RH  092%=      5-min Rain = 0
KTH1 141233Z 07004KT 24/22 A3005 RMK A01 T02360222  RH  092%=      5-min Rain = 0
KTH1 141234Z 07004KT 24/22 A3005 RMK A01 T02360222  RH  092%=      5-min Rain = 0
KTH1 141235Z 07003KT 24/22 A3005 RMK A01 T02360222  RH  092%=      5-min Rain = 0
KTH1 141236Z 07003KT 24/22 A3005 RMK A01 T02350222  RH  092%=      5-min Rain = 0
KTH1 141237Z 08004KT 24/22 A3005 RMK A01 T02350222  RH  092%=      5-min Rain = 0
KTH1 141238Z 07004KT 24/22 A3005 RMK A01 T02350222  RH  092%=      5-min Rain = 0
KTH1 141239Z 08004KT 24/22 A3005 RMK A01 T02350222  RH  092%=      5-min Rain = 0
KTH1 141240Z 08002KT 24/22 A3005 RMK A01 T02360223  RH  092%=      5-min Rain = 0
KTH1 141241Z 07003KT 24/22 A3005 RMK A01 T02350222  RH  092%=      5-min Rain = 0
KTH1 141242Z 07003KT 24/22 A3005 RMK A01 T02360223  RH  092%=      5-min Rain = 0
KTH1 141243Z 07003KT 24/22 A3005 RMK A01 T02350222  RH  092%=      5-min Rain = 0
KTH1 141244Z 07003KT 24/22 A3005 RMK A01 T02350222  RH  092%=      5-min Rain = 0
KTH1 141245Z 07003KT 24/22 A3006 RMK A01 T02360223  RH  092%=      5-min Rain = 0
KTH1 141246Z 07003KT 24/22 A3006 RMK A01 T02370223  RH  092%=      5-min Rain = 0
KTH1 141247Z 07003KT 24/22 A3006 RMK A01 T02380223  RH  091%=      5-min Rain = 0
KTH1 141248Z 06003KT 24/22 A3006 RMK A01 T02390223  RH  091%=      5-min Rain = 0
KTH1 141249Z 06003KT 24/22 A3006 RMK A01 T02390223  RH  091%=      5-min Rain = 0
KTH1 141250Z 06003KT 24/22 A3006 RMK A01 T02400223  RH  090%=      5-min Rain = 0
KTH1 141251Z 06003KT 24/22 A3006 RMK A01 T02410223  RH  090%=      5-min Rain = 0
KTH1 141252Z 06004KT 24/22 A3006 RMK A01 T02410223  RH  090%=      5-min Rain = 0
KTH1 141253Z 06004KT 24/22 A3006 RMK A01 T02420223  RH  089%=      5-min Rain = 0
KTH1 141254Z 05004KT 24/22 A3006 RMK A01 T02430223  RH  089%=      5-min Rain = 0
KTH1 141255Z 06004KT 24/22 A3006 RMK A01 T02430222  RH  088%=      5-min Rain = 0
KTH1 141256Z 07004KT 24/22 A3006 RMK A01 T02430222  RH  088%=      5-min Rain = 0
KTH1 141257Z 06003KT 24/22 A3006 RMK A01 T02430222  RH  088%=      5-min Rain = 0
KTH1 141258Z 05004KT 24/22 A3006 RMK A01 T02440223  RH  088%=      5-min Rain = 0
KTH1 141259Z 06004KT 25/22 A3006 RMK A01 T02450222  RH  087%=      5-min Rain = 0
KTH1 141300Z 06003KT 25/22 A3006 RMK A01 T02450221  RH  087%=      5-min Rain = 0
KTH1 141301Z 05003KT 25/22 A3007 RMK A01 T02460222  RH  087%=      5-min Rain = 0
KTH1 141302Z 05003KT 25/22 A3007 RMK A01 T02460222  RH  086%=      5-min Rain = 0
KTH1 141303Z 05002KT 25/22 A3007 RMK A01 T02470222  RH  086%=      5-min Rain = 0
KTH1 141304Z 04004KT 25/22 A3007 RMK A01 T02470222  RH  086%=      5-min Rain = 0
KTH1 141305Z 05004KT 25/22 A3007 RMK A01 T02470222  RH  086%=      5-min Rain = 0
KTH1 141306Z 03006KT 25/22 A3007 RMK A01 T02470222  RH  086%=      5-min Rain = 0
KTH1 141307Z 04006KT 25/22 A3007 RMK A01 T02470222  RH  086%=      5-min Rain = 0
KTH1 141308Z 04006KT 25/22 A3007 RMK A01 T02470222  RH  086%=      5-min Rain = 0
KTH1 141309Z 03004KT 25/22 A3007 RMK A01 T02470222  RH  086%=      5-min Rain = 0
KTH1 141310Z 03004KT 25/22 A3007 RMK A01 T02470222  RH  086%=      5-min Rain = 0
KTH1 141311Z 04006KT 25/22 A3007 RMK A01 T02470221  RH  085%=      5-min Rain = 0
KTH1 141312Z 04006KT 25/22 A3007 RMK A01 T02470220  RH  085%=      5-min Rain = 0
KTH1 141313Z 04005KT 25/22 A3007 RMK A01 T02470220  RH  085%=      5-min Rain = 0
KTH1 141314Z 04005KT 25/22 A3007 RMK A01 T02470220  RH  085%=      5-min Rain = 0
KTH1 141315Z 05006KT 25/22 A3007 RMK A01 T02480219  RH  084%=      5-min Rain = 0
KTH1 141316Z 06006KT 25/22 A3007 RMK A01 T02480218  RH  084%=      5-min Rain = 0
KTH1 141317Z 07007KT 25/22 A3008 RMK A01 T02490218  RH  083%=      5-min Rain = 0
KTH1 141318Z 06006KT 25/22 A3008 RMK A01 T02500218  RH  083%=      5-min Rain = 0
KTH1 141319Z 05005KT 25/22 A3008 RMK A01 T02510219  RH  082%=      5-min Rain = 0
KTH1 141320Z 06005KT 25/22 A3008 RMK A01 T02520218  RH  081%=      5-min Rain = 0
KTH1 141321Z 06009KT 25/22 A3008 RMK A01 T02530217  RH  081%=      5-min Rain = 0
KTH1 141322Z 05007KT 25/22 A3008 RMK A01 T02530217  RH  080%=      5-min Rain = 0
KTH1 141323Z 05006KT 25/22 A3008 RMK A01 T02540217  RH  080%=      5-min Rain = 0
KTH1 141324Z 05004KT 25/22 A3008 RMK A01 T02540217  RH  080%=      5-min Rain = 0
KTH1 141325Z 06005KT 26/22 A3008 RMK A01 T02550217  RH  080%=      5-min Rain = 0
KTH1 141326Z 05007KT 26/22 A3008 RMK A01 T02550216  RH  079%=      5-min Rain = 0
KTH1 141327Z 05005KT 26/22 A3008 RMK A01 T02560217  RH  079%=      5-min Rain = 0
KTH1 141328Z 05007KT 26/22 A3008 RMK A01 T02560216  RH  078%=      5-min Rain = 0
KTH1 141329Z 05008KT 26/22 A3008 RMK A01 T02560216  RH  078%=      5-min Rain = 0
KTH1 141330Z 06009KT 26/22 A3008 RMK A01 T02570216  RH  078%=      5-min Rain = 0
KTH1 141331Z 05005KT 26/22 A3008 RMK A01 T02570216  RH  078%=      5-min Rain = 0
KTH1 141332Z 04005KT 26/22 A3008 RMK A01 T02570217  RH  079%=      5-min Rain = 0
KTH1 141333Z 04006KT 26/22 A3009 RMK A01 T02580217  RH  078%=      5-min Rain = 0
KTH1 141334Z 04005KT 26/22 A3009 RMK A01 T02580217  RH  078%=      5-min Rain = 0
KTH1 141335Z 05007KT 26/22 A3009 RMK A01 T02580217  RH  078%=      5-min Rain = 0
KTH1 141336Z 04006KT 26/22 A3009 RMK A01 T02580216  RH  077%=      5-min Rain = 0
KTH1 141337Z 05007KT 26/22 A3009 RMK A01 T02580215  RH  077%=      5-min Rain = 0
KTH1 141338Z 05005KT 26/22 A3009 RMK A01 T02580215  RH  077%=      5-min Rain = 0
KTH1 141339Z 06005KT 26/22 A3009 RMK A01 T02580215  RH  077%=      5-min Rain = 0
KTH1 141340Z 06005KT 26/22 A3009 RMK A01 T02600216  RH  076%=      5-min Rain = 0
KTH1 141341Z 07005KT 26/21 A3009 RMK A01 T02620214  RH  075%=      5-min Rain = 0
KTH1 141342Z 06006KT 26/21 A3009 RMK A01 T02630213  RH  074%=      5-min Rain = 0
KTH1 141343Z 05005KT 26/21 A3009 RMK A01 T02640213  RH  074%=      5-min Rain = 0
KTH1 141344Z 04008KT 26/21 A3009 RMK A01 T02640213  RH  073%=      5-min Rain = 0
KTH1 141345Z 05009KT 26/21 A3009 RMK A01 T02640212  RH  073%=      5-min Rain = 0
KTH1 141346Z 06007KT 26/21 A3009 RMK A01 T02630212  RH  073%=      5-min Rain = 0
KTH1 141347Z 05006KT 26/21 A3009 RMK A01 T02620212  RH  074%=      5-min Rain = 0
KTH1 141348Z 05006KT 26/21 A3009 RMK A01 T02620212  RH  074%=      5-min Rain = 0
KTH1 141349Z 05007KT 26/21 A3009 RMK A01 T02640213  RH  073%=      5-min Rain = 0
KTH1 141350Z 04006KT 27/21 A3009 RMK A01 T02650212  RH  073%=      5-min Rain = 0
KTH1 141351Z 06007KT 27/21 A3009 RMK A01 T02650209  RH  072%=      5-min Rain = 0
KTH1 141352Z 06007KT 27/21 A3009 RMK A01 T02650210  RH  072%=      5-min Rain = 0
KTH1 141353Z 05008KT 27/21 A3009 RMK A01 T02650208  RH  071%=      5-min Rain = 0
KTH1 141354Z 07008KT 27/21 A3009 RMK A01 T02650208  RH  071%=      5-min Rain = 0
KTH1 141355Z 06008KT 27/21 A3009 RMK A01 T02650208  RH  071%=      5-min Rain = 0
KTH1 141356Z 07007KT 27/21 A3009 RMK A01 T02650209  RH  072%=      5-min Rain = 0
KTH1 141357Z 07006KT 27/21 A3009 RMK A01 T02650211  RH  072%=      5-min Rain = 0
KTH1 141358Z 05006KT 27/21 A3009 RMK A01 T02650211  RH  072%=      5-min Rain = 0
KTH1 141359Z 05005KT 27/21 A301 RMK A01 T02650212  RH  073%=      5-min Rain = 0
KTH1 141400Z 03006KT 27/21 A301 RMK A01 T02650214  RH  073%=      5-min Rain = 0
KTH1 141401Z 04005KT 27/21 A301 RMK A01 T02670214  RH  072%=      5-min Rain = 0
KTH1 141402Z 03006KT 27/21 A301 RMK A01 T02680213  RH  072%=      5-min Rain = 0
KTH1 141403Z 03007KT 27/21 A301 RMK A01 T02680212  RH  072%=      5-min Rain = 0
KTH1 141404Z 03006KT 27/21 A301 RMK A01 T02670213  RH  072%=      5-min Rain = 0
KTH1 141405Z 04004KT 27/21 A301 RMK A01 T02660213  RH  073%=      5-min Rain = 0
KTH1 141406Z 04006G11KT 27/21 A301 RMK A01 T02660213  RH  073%=      5-min Rain = 0
KTH1 141407Z 03005KT 27/21 A301 RMK A01 T02660211  RH  072%=      5-min Rain = 0
KTH1 141408Z 04007KT 27/21 A301 RMK A01 T02670211  RH  071%=      5-min Rain = 0
KTH1 141409Z 05006KT 27/21 A301 RMK A01 T02670211  RH  072%=      5-min Rain = 0
KTH1 141410Z 06006KT 27/21 A301 RMK A01 T02670212  RH  072%=      5-min Rain = 0
KTH1 141411Z 05006KT 27/21 A301 RMK A01 T02680212  RH  071%=      5-min Rain = 0
KTH1 141412Z 07005KT 27/21 A301 RMK A01 T02690212  RH  071%=      5-min Rain = 0
KTH1 141413Z 06004KT 27/21 A301 RMK A01 T02690212  RH  071%=      5-min Rain = 0
KTH1 141414Z 04004KT 27/21 A301 RMK A01 T02690212  RH  071%=      5-min Rain = 0
KTH1 141415Z 04005G10KT 27/21 A301 RMK A01 T02680214  RH  072%=      5-min Rain = 0
KTH1 141416Z 04008KT 27/21 A301 RMK A01 T02690213  RH  071%=      5-min Rain = 0
KTH1 141417Z 04006KT 27/21 A301 RMK A01 T02700212  RH  071%=      5-min Rain = 0
KTH1 141418Z 04006KT 27/21 A301 RMK A01 T02690212  RH  071%=      5-min Rain = 0
KTH1 141419Z 05006KT 27/21 A301 RMK A01 T02690211  RH  071%=      5-min Rain = 0
KTH1 141420Z 04005KT 27/21 A301 RMK A01 T02680211  RH  071%=      5-min Rain = 0
KTH1 141421Z 03006KT 27/21 A301 RMK A01 T02700212  RH  071%=      5-min Rain = 0
KTH1 141422Z 04007KT 27/21 A301 RMK A01 T02700212  RH  070%=      5-min Rain = 0
KTH1 141423Z 04006KT 27/21 A301 RMK A01 T02700213  RH  071%=      5-min Rain = 0
KTH1 141424Z 05006KT 27/21 A3011 RMK A01 T02700213  RH  071%=      5-min Rain = 0
KTH1 141425Z 03006KT 27/21 A3011 RMK A01 T02700213  RH  071%=      5-min Rain = 0
KTH1 141426Z 01007KT 27/21 A3011 RMK A01 T02700213  RH  071%=      5-min Rain = 0
KTH1 141427Z 04008KT 27/21 A3011 RMK A01 T02690212  RH  071%=      5-min Rain = 0
KTH1 141428Z 04005KT 27/21 A301 RMK A01 T02680212  RH  071%=      5-min Rain = 0
KTH1 141429Z 07004KT 27/21 A301 RMK A01 T02680213  RH  072%=      5-min Rain = 0
KTH1 141430Z 05004KT 27/21 A301 RMK A01 T02700214  RH  071%=      5-min Rain = 0
KTH1 141431Z 02004KT 27/21 A301 RMK A01 T02730214  RH  070%=      5-min Rain = 0
KTH1 141432Z 03004KT 28/21 A301 RMK A01 T02750214  RH  069%=      5-min Rain = 0
KTH1 141433Z 01004G9KT 28/21 A301 RMK A01 T02750213  RH  069%=      5-min Rain = 0
KTH1 141434Z 01006KT 28/21 A301 RMK A01 T02760213  RH  069%=      5-min Rain = 0
KTH1 141435Z 03004KT 28/21 A301 RMK A01 T02750213  RH  069%=      5-min Rain = 0
KTH1 141436Z 07005KT 28/21 A301 RMK A01 T02750214  RH  069%=      5-min Rain = 0
KTH1 141437Z 03004KT 28/21 A301 RMK A01 T02760214  RH  069%=      5-min Rain = 0
KTH1 141438Z 02005KT 28/21 A301 RMK A01 T02760213  RH  069%=      5-min Rain = 0
KTH1 141439Z 06005KT 28/21 A301 RMK A01 T02750213  RH  069%=      5-min Rain = 0
KTH1 141440Z 03004KT 28/21 A301 RMK A01 T02750212  RH  068%=      5-min Rain = 0
KTH1 141441Z 05003KT 28/21 A301 RMK A01 T02760212  RH  068%=      5-min Rain = 0
KTH1 141442Z 02005KT 28/21 A301 RMK A01 T02770211  RH  067%=      5-min Rain = 0
KTH1 141443Z 02005KT 28/21 A3011 RMK A01 T02780212  RH  067%=      5-min Rain = 0
KTH1 141444Z 02006KT 28/21 A3011 RMK A01 T02770212  RH  068%=      5-min Rain = 0
KTH1 141445Z 04004KT 28/21 A3011 RMK A01 T02760212  RH  068%=      5-min Rain = 0
KTH1 141446Z 05005KT 28/21 A3011 RMK A01 T02770213  RH  068%=      5-min Rain = 0
KTH1 141447Z 04004KT 28/21 A3011 RMK A01 T02790213  RH  067%=      5-min Rain = 0
KTH1 141448Z 03005KT 28/21 A3011 RMK A01 T02800211  RH  066%=      5-min Rain = 0
KTH1 141449Z 05003KT 28/21 A3011 RMK A01 T02780210  RH  066%=      5-min Rain = 0
KTH1 141450Z 01005KT 28/21 A3011 RMK A01 T02780211  RH  067%=      5-min Rain = 0
KTH1 141451Z 02006KT 28/21 A3011 RMK A01 T02800211  RH  066%=      5-min Rain = 0
KTH1 141452Z 03004KT 28/21 A3011 RMK A01 T02800209  RH  065%=      5-min Rain = 0
KTH1 141453Z 04003KT 28/21 A3011 RMK A01 T02790210  RH  066%=      5-min Rain = 0
KTH1 141454Z 07003KT 28/21 A3011 RMK A01 T02800212  RH  067%=      5-min Rain = 0
KTH1 141455Z 03002KT 28/21 A3011 RMK A01 T02830213  RH  066%=      5-min Rain = 0
KTH1 141456Z 01004KT 29/21 A3011 RMK A01 T02850213  RH  065%=      5-min Rain = 0
KTH1 141457Z 00006KT 28/21 A3011 RMK A01 T02840211  RH  065%=      5-min Rain = 0
KTH1 141458Z 36005KT 28/21 A3011 RMK A01 T02800210  RH  066%=      5-min Rain = 0
KTH1 141459Z 01004KT 28/21 A3011 RMK A01 T02790212  RH  067%=      5-min Rain = 0
KTH1 141500Z 00004KT 28/21 A3011 RMK A01 T02800211  RH  066%=      5-min Rain = 0
KTH1 141501Z 05003KT 28/21 A3011 RMK A01 T02810211  RH  066%=      5-min Rain = 0
KTH1 141502Z 03002KT 28/21 A3011 RMK A01 T02820211  RH  066%=      5-min Rain = 0
KTH1 141503Z 02001KT 28/21 A3011 RMK A01 T02810212  RH  066%=      5-min Rain = 0
KTH1 141504Z 35002KT 28/21 A3011 RMK A01 T02830212  RH  065%=      5-min Rain = 0
KTH1 141505Z 00002KT 29/21 A3011 RMK A01 T02850211  RH  064%=      5-min Rain = 0
KTH1 141506Z 04003KT 29/21 A3011 RMK A01 T02860212  RH  064%=      5-min Rain = 0
KTH1 141507Z 06006KT 29/21 A3011 RMK A01 T02860210  RH  063%=      5-min Rain = 0
KTH1 141508Z 06005KT 29/21 A3011 RMK A01 T02860209  RH  063%=      5-min Rain = 0
KTH1 141509Z 09002KT 29/21 A3011 RMK A01 T02850210  RH  064%=      5-min Rain = 0
KTH1 141510Z 04002KT 28/21 A3011 RMK A01 T02840209  RH  064%=      5-min Rain = 0
KTH1 141511Z 03004KT 29/21 A3011 RMK A01 T02850209  RH  063%=      5-min Rain = 0
KTH1 141512Z 01003KT 29/21 A3011 RMK A01 T02850209  RH  063%=      5-min Rain = 0
KTH1 141513Z 03007KT 29/21 A3011 RMK A01 T02850209  RH  063%=      5-min Rain = 0
KTH1 141514Z 05006KT 29/21 A3011 RMK A01 T02850210  RH  064%=      5-min Rain = 0
KTH1 141515Z 06006KT 29/21 A3011 RMK A01 T02860209  RH  063%=      5-min Rain = 0
KTH1 141516Z 06003KT 29/21 A3011 RMK A01 T02860208  RH  063%=      5-min Rain = 0
KTH1 141517Z 03005KT 29/21 A3011 RMK A01 T02870209  RH  063%=      5-min Rain = 0
KTH1 141518Z 02004KT 29/21 A3011 RMK A01 T02870210  RH  063%=      5-min Rain = 0
KTH1 141519Z 35005KT 29/21 A3011 RMK A01 T02860210  RH  064%=      5-min Rain = 0
KTH1 141520Z 01004KT 29/21 A3011 RMK A01 T02860210  RH  063%=      5-min Rain = 0
KTH1 141521Z 00003KT 29/21 A3011 RMK A01 T02870210  RH  063%=      5-min Rain = 0
KTH1 141522Z 00003KT 29/21 A3011 RMK A01 T02880209  RH  062%=      5-min Rain = 0
KTH1 141523Z 07004KT 29/21 A3011 RMK A01 T02880208  RH  062%=      5-min Rain = 0
KTH1 141524Z 07005KT 29/21 A3011 RMK A01 T02900209  RH  062%=      5-min Rain = 0
KTH1 141525Z 09004KT 29/21 A3011 RMK A01 T02920209  RH  061%=      5-min Rain = 0
KTH1 141526Z 08004KT 29/21 A3011 RMK A01 T02930210  RH  061%=      5-min Rain = 0
KTH1 141527Z 05003KT 29/21 A3011 RMK A01 T02940210  RH  060%=      5-min Rain = 0
KTH1 141528Z 05003KT 29/21 A3011 RMK A01 T02940207  RH  060%=      5-min Rain = 0
KTH1 141529Z 00003KT 29/21 A3011 RMK A01 T02930208  RH  060%=      5-min Rain = 0
KTH1 141530Z 35002KT 29/21 A3011 RMK A01 T02920208  RH  060%=      5-min Rain = 0
KTH1 141531Z 03002KT 29/21 A3011 RMK A01 T02910210  RH  061%=      5-min Rain = 0
KTH1 141532Z 04004KT 29/21 A3011 RMK A01 T02920210  RH  061%=      5-min Rain = 0
KTH1 141533Z 01005KT 29/21 A3011 RMK A01 T02920209  RH  061%=      5-min Rain = 0
KTH1 141534Z 04005KT 29/21 A3011 RMK A01 T02900209  RH  062%=      5-min Rain = 0
KTH1 141535Z 36005KT 29/21 A3011 RMK A01 T02890210  RH  062%=      5-min Rain = 0
KTH1 141536Z 36005KT 29/21 A3011 RMK A01 T02890209  RH  062%=      5-min Rain = 0
KTH1 141537Z 35005KT 29/21 A3011 RMK A01 T02890210  RH  062%=      5-min Rain = 0
KTH1 141538Z 36003KT 29/21 A3011 RMK A01 T02890210  RH  062%=      5-min Rain = 0
KTH1 141539Z 34003KT 29/21 A3011 RMK A01 T02900210  RH  062%=      5-min Rain = 0
KTH1 141540Z 34002KT 29/21 A3011 RMK A01 T02910211  RH  062%=      5-min Rain = 0
KTH1 141541Z 03005KT 29/21 A3011 RMK A01 T02920210  RH  061%=      5-min Rain = 0
KTH1 141542Z 04004KT 29/21 A3011 RMK A01 T02940207  RH  059%=      5-min Rain = 0
KTH1 141543Z 03006KT 30/21 A3011 RMK A01 T02950207  RH  059%=      5-min Rain = 0
KTH1 141544Z 01006KT 30/21 A3011 RMK A01 T02960207  RH  059%=      5-min Rain = 0
KTH1 141545Z 01005KT 30/21 A3011 RMK A01 T02950206  RH  059%=      5-min Rain = 0
KTH1 141546Z 04006KT 29/21 A3011 RMK A01 T02940206  RH  059%=      5-min Rain = 0
KTH1 141547Z 03003KT 29/21 A3011 RMK A01 T02940207  RH  060%=      5-min Rain = 0
KTH1 141548Z 02001KT 29/21 A3011 RMK A01 T02930205  RH  059%=      5-min Rain = 0
KTH1 141549Z 03001KT 29/21 A3011 RMK A01 T02930206  RH  059%=      5-min Rain = 0
KTH1 141550Z 05004KT 29/21 A3011 RMK A01 T02930208  RH  060%=      5-min Rain = 0
KTH1 141551Z 06003KT 29/21 A3011 RMK A01 T02940210  RH  061%=      5-min Rain = 0
KTH1 141552Z 07002KT 29/21 A3011 RMK A01 T02940210  RH  061%=      5-min Rain = 0
KTH1 141553Z 05001KT 30/21 A301 RMK A01 T02950211  RH  061%=      5-min Rain = 0
KTH1 141554Z 08000KT 30/21 A301 RMK A01 T02960211  RH  060%=      5-min Rain = 0
KTH1 141555Z 26001KT 30/21 A301 RMK A01 T02990211  RH  059%=      5-min Rain = 0
KTH1 141556Z 32001KT 30/21 A301 RMK A01 T03010212  RH  059%=      5-min Rain = 0
KTH1 141557Z 28001KT 30/21 A301 RMK A01 T03020212  RH  059%=      5-min Rain = 0
KTH1 141558Z 30004KT 30/21 A301 RMK A01 T03020212  RH  059%=      5-min Rain = 0
KTH1 141559Z 31004KT 30/22 A301 RMK A01 T03020216  RH  060%=      5-min Rain = 0
KTH1 141600Z 31003KT 30/22 A301 RMK A01 T03020215  RH  060%=      5-min Rain = 0
KTH1 141601Z 32003KT 30/22 A301 RMK A01 T03030216  RH  060%=      5-min Rain = 0
KTH1 141602Z 35001KT 30/22 A301 RMK A01 T03040215  RH  059%=      5-min Rain = 0
KTH1 141603Z 03002KT 31/21 A301 RMK A01 T03050212  RH  058%=      5-min Rain = 0
KTH1 141604Z 06005KT 31/21 A301 RMK A01 T03050208  RH  056%=      5-min Rain = 0
KTH1 141605Z 06005KT 31/21 A301 RMK A01 T03050208  RH  056%=      5-min Rain = 0
KTH1 141606Z 07005KT 30/21 A301 RMK A01 T03040208  RH  056%=      5-min Rain = 0
KTH1 141607Z 04004KT 30/21 A301 RMK A01 T03040207  RH  056%=      5-min Rain = 0
KTH1 141608Z 07004KT 30/21 A301 RMK A01 T03030207  RH  057%=      5-min Rain = 0
KTH1 141609Z 12003KT 30/21 A301 RMK A01 T03030208  RH  057%=      5-min Rain = 0
KTH1 141610Z 07003KT 31/21 A301 RMK A01 T03050208  RH  056%=      5-min Rain = 0
KTH1 141611Z 01003KT 31/21 A301 RMK A01 T03060208  RH  056%=      5-min Rain = 0
KTH1 141612Z 04003KT 31/21 A301 RMK A01 T03050209  RH  056%=      5-min Rain = 0
KTH1 141613Z 06002KT 31/21 A301 RMK A01 T03050210  RH  057%=      5-min Rain = 0
KTH1 141614Z 04003KT 31/21 A301 RMK A01 T03080211  RH  056%=      5-min Rain = 0
KTH1 141615Z 36002KT 31/21 A301 RMK A01 T03100211  RH  056%=      5-min Rain = 0
KTH1 141616Z 07002KT 31/21 A301 RMK A01 T03100210  RH  055%=      5-min Rain = 0
KTH1 141617Z 11001KT 31/21 A301 RMK A01 T03100211  RH  056%=      5-min Rain = 0
KTH1 141618Z 35000KT 31/21 A301 RMK A01 T03110210  RH  055%=      5-min Rain = 0
KTH1 141619Z 32002KT 31/21 A301 RMK A01 T03120212  RH  055%=      5-min Rain = 0
KTH1 141620Z 36004KT 31/21 A301 RMK A01 T03140213  RH  055%=      5-min Rain = 0
KTH1 141621Z 01003KT 31/21 A301 RMK A01 T03120211  RH  055%=      5-min Rain = 0
KTH1 141622Z 31001KT 31/21 A301 RMK A01 T03100211  RH  056%=      5-min Rain = 0
KTH1 141623Z 06005KT 31/21 A301 RMK A01 T03090210  RH  056%=      5-min Rain = 0
KTH1 141624Z 05005KT 31/21 A301 RMK A01 T03090209  RH  055%=      5-min Rain = 0
KTH1 141625Z 07006KT 31/21 A301 RMK A01 T03090210  RH  056%=      5-min Rain = 0
KTH1 141626Z 06006KT 31/21 A301 RMK A01 T03110209  RH  055%=      5-min Rain = 0
KTH1 141627Z 05004KT 31/21 A301 RMK A01 T03090210  RH  055%=      5-min Rain = 0
KTH1 141628Z 02002KT 31/21 A301 RMK A01 T03070208  RH  056%=      5-min Rain = 0
KTH1 141629Z 01001KT 31/21 A301 RMK A01 T03050208  RH  056%=      5-min Rain = 0
KTH1 141630Z 32002KT 31/21 A301 RMK A01 T03050209  RH  057%=      5-min Rain = 0
KTH1 141631Z 29001KT 31/21 A301 RMK A01 T03060208  RH  056%=      5-min Rain = 0
KTH1 141632Z 28001KT 31/21 A301 RMK A01 T03060209  RH  056%=      5-min Rain = 0
KTH1 141633Z 34002KT 31/21 A301 RMK A01 T03070210  RH  056%=      5-min Rain = 0
KTH1 141634Z 01004KT 31/21 A301 RMK A01 T03100212  RH  056%=      5-min Rain = 0
KTH1 141635Z 03006KT 31/21 A301 RMK A01 T03120213  RH  056%=      5-min Rain = 0
KTH1 141636Z 05005KT 31/21 A301 RMK A01 T03130213  RH  055%=      5-min Rain = 0
KTH1 141637Z 01003KT 31/21 A301 RMK A01 T03130214  RH  056%=      5-min Rain = 0
KTH1 141638Z 03007KT 31/21 A301 RMK A01 T03140213  RH  055%=      5-min Rain = 0
KTH1 141639Z 04005KT 31/21 A301 RMK A01 T03120211  RH  055%=      5-min Rain = 0
KTH1 141640Z 01004KT 31/21 A301 RMK A01 T03110213  RH  056%=      5-min Rain = 0
KTH1 141641Z 01003KT 31/21 A301 RMK A01 T03130213  RH  055%=      5-min Rain = 0
KTH1 141642Z 34003KT 31/21 A301 RMK A01 T03140210  RH  054%=      5-min Rain = 0
KTH1 141643Z 35002KT 31/21 A301 RMK A01 T03120211  RH  055%=      5-min Rain = 0
KTH1 141644Z 34002KT 31/21 A301 RMK A01 T03110211  RH  055%=      5-min Rain = 0
KTH1 141645Z 33003KT 31/21 A301 RMK A01 T03110211  RH  055%=      5-min Rain = 0
KTH1 141646Z 34003KT 31/21 A301 RMK A01 T03100212  RH  056%=      5-min Rain = 0
KTH1 141647Z 34003KT 31/21 A301 RMK A01 T03110211  RH  055%=      5-min Rain = 0
KTH1 141648Z 31004KT 31/21 A301 RMK A01 T03110213  RH  056%=      5-min Rain = 0
KTH1 141649Z 34002KT 31/21 A301 RMK A01 T03100213  RH  057%=      5-min Rain = 0
KTH1 141650Z 31005KT 31/21 A301 RMK A01 T03100214  RH  057%=      5-min Rain = 0
KTH1 141651Z 34004KT 31/21 A301 RMK A01 T03100213  RH  056%=      5-min Rain = 0
KTH1 141652Z 00004KT 31/21 A301 RMK A01 T03110213  RH  056%=      5-min Rain = 0
KTH1 141653Z 02005KT 31/21 A301 RMK A01 T03130213  RH  055%=      5-min Rain = 0
KTH1 141654Z 02003KT 32/21 A301 RMK A01 T03150212  RH  055%=      5-min Rain = 0
KTH1 141655Z 36005KT 32/21 A301 RMK A01 T03160214  RH  055%=      5-min Rain = 0
KTH1 141656Z 02004KT 32/21 A301 RMK A01 T03160213  RH  054%=      5-min Rain = 0
KTH1 141657Z 02005KT 31/21 A301 RMK A01 T03140212  RH  055%=      5-min Rain = 0
KTH1 141658Z 01006KT 31/21 A3009 RMK A01 T03140213  RH  055%=      5-min Rain = 0
KTH1 141659Z 02005KT 31/21 A3009 RMK A01 T03120212  RH  055%=      5-min Rain = 0
KTH1 141700Z 07003KT 31/21 A3009 RMK A01 T03110212  RH  056%=      5-min Rain = 0
KTH1 141701Z 08002KT 31/21 A3009 RMK A01 T03120212  RH  055%=      5-min Rain = 0
KTH1 141702Z 05006KT 31/21 A3009 RMK A01 T03120213  RH  055%=      5-min Rain = 0
KTH1 141703Z 05006KT 31/21 A3009 RMK A01 T03140214  RH  056%=      5-min Rain = 0
KTH1 141704Z 02007KT 32/22 A3009 RMK A01 T03160215  RH  055%=      5-min Rain = 0
KTH1 141705Z 00009KT 32/22 A3009 RMK A01 T03180216  RH  055%=      5-min Rain = 0
KTH1 141706Z 34005KT 32/21 A3009 RMK A01 T03170214  RH  055%=      5-min Rain = 0
KTH1 141707Z 35004KT 32/22 A3009 RMK A01 T03150215  RH  055%=      5-min Rain = 0
KTH1 141708Z 00002G7KT 32/22 A3009 RMK A01 T03150216  RH  056%=      5-min Rain = 0
KTH1 141709Z 36005KT 32/22 A3009 RMK A01 T03180216  RH  055%=      5-min Rain = 0
KTH1 141710Z 36007KT 32/22 A3009 RMK A01 T03180216  RH  055%=      5-min Rain = 0
KTH1 141711Z 02005KT 32/22 A3009 RMK A01 T03180215  RH  054%=      5-min Rain = 0
KTH1 141712Z 36005KT 32/22 A3009 RMK A01 T03200215  RH  054%=      5-min Rain = 0
KTH1 141713Z 35005KT 32/22 A3009 RMK A01 T03200215  RH  054%=      5-min Rain = 0
KTH1 141714Z 35006KT 32/22 A3009 RMK A01 T03190215  RH  054%=      5-min Rain = 0
KTH1 141715Z 31004KT 32/22 A3009 RMK A01 T03180215  RH  054%=      5-min Rain = 0
KTH1 141716Z 32003KT 32/22 A3009 RMK A01 T03180217  RH  055%=      5-min Rain = 0
KTH1 141717Z 32004KT 32/22 A3009 RMK A01 T03200217  RH  054%=      5-min Rain = 0
KTH1 141718Z 00005KT 32/21 A3009 RMK A01 T03220214  RH  053%=      5-min Rain = 0
KTH1 141719Z 03002KT 32/21 A3009 RMK A01 T03210214  RH  053%=      5-min Rain = 0
KTH1 141720Z 29002KT 32/22 A3009 RMK A01 T03200215  RH  054%=      5-min Rain = 0
KTH1 141721Z 26002KT 32/21 A3009 RMK A01 T03190214  RH  054%=      5-min Rain = 0
KTH1 141722Z 09001KT 32/21 A3009 RMK A01 T03180213  RH  054%=      5-min Rain = 0
KTH1 141723Z 01003KT 32/22 A3009 RMK A01 T03190215  RH  054%=      5-min Rain = 0
KTH1 141724Z 34002KT 32/22 A3009 RMK A01 T03220216  RH  053%=      5-min Rain = 0
KTH1 141725Z 04002KT 32/22 A3009 RMK A01 T03230215  RH  053%=      5-min Rain = 0
KTH1 141726Z 32002KT 32/22 A3009 RMK A01 T03240216  RH  053%=      5-min Rain = 0
KTH1 141727Z 34003KT 32/22 A3009 RMK A01 T03240217  RH  053%=      5-min Rain = 0
KTH1 141728Z 01005KT 32/22 A3009 RMK A01 T03240218  RH  054%=      5-min Rain = 0
KTH1 141729Z 01006KT 33/22 A3009 RMK A01 T03260216  RH  052%=      5-min Rain = 0
KTH1 141730Z 04004KT 33/22 A3009 RMK A01 T03260215  RH  052%=      5-min Rain = 0
KTH1 141731Z 09002KT 32/21 A3009 RMK A01 T03240214  RH  052%=      5-min Rain = 0
KTH1 141732Z 00002KT 32/22 A3009 RMK A01 T03230215  RH  053%=      5-min Rain = 0
KTH1 141733Z 03006KT 33/22 A3009 RMK A01 T03250216  RH  053%=      5-min Rain = 0
KTH1 141734Z 01005KT 33/21 A3009 RMK A01 T03250214  RH  052%=      5-min Rain = 0
KTH1 141735Z 01002KT 32/21 A3009 RMK A01 T03230214  RH  053%=      5-min Rain = 0
KTH1 141736Z 31003KT 32/21 A3009 RMK A01 T03230214  RH  053%=      5-min Rain = 0
KTH1 141737Z 33002KT 32/22 A3009 RMK A01 T03230216  RH  053%=      5-min Rain = 0
KTH1 141738Z 26001KT 32/22 A3009 RMK A01 T03240215  RH  053%=      5-min Rain = 0
KTH1 141739Z 34003KT 33/22 A3009 RMK A01 T03250216  RH  053%=      5-min Rain = 0
KTH1 141740Z 01004KT 33/22 A3009 RMK A01 T03250218  RH  053%=      5-min Rain = 0
KTH1 141741Z 02007KT 33/22 A3009 RMK A01 T03260215  RH  052%=      5-min Rain = 0
KTH1 141742Z 00007KT 33/21 A3009 RMK A01 T03260214  RH  052%=      5-min Rain = 0
KTH1 141743Z 35005KT 32/21 A3009 RMK A01 T03230213  RH  052%=      5-min Rain = 0
KTH1 141744Z 34003KT 32/21 A3009 RMK A01 T03210214  RH  053%=      5-min Rain = 0
KTH1 141745Z 34001KT 32/21 A3009 RMK A01 T03220214  RH  053%=      5-min Rain = 0
KTH1 141746Z 01001KT 32/21 A3009 RMK A01 T03220214  RH  053%=      5-min Rain = 0
KTH1 141747Z 02006KT 33/22 A3009 RMK A01 T03260218  RH  053%=      5-min Rain = 0
KTH1 141748Z 03006KT 33/22 A3009 RMK A01 T03290217  RH  052%=      5-min Rain = 0
KTH1 141749Z 36006KT 33/22 A3009 RMK A01 T03280216  RH  052%=      5-min Rain = 0
KTH1 141750Z 36006KT 33/22 A3009 RMK A01 T03250215  RH  052%=      5-min Rain = 0
KTH1 141751Z 35003KT 32/21 A3009 RMK A01 T03210214  RH  053%=      5-min Rain = 0
KTH1 141752Z 35002KT 32/21 A3009 RMK A01 T03190214  RH  054%=      5-min Rain = 0
KTH1 141753Z 00001KT 32/22 A3009 RMK A01 T03180215  RH  055%=      5-min Rain = 0
KTH1 141754Z 02003KT 32/22 A3009 RMK A01 T03180215  RH  054%=      5-min Rain = 0
KTH1 141755Z 36005KT 32/21 A3009 RMK A01 T03180214  RH  054%=      5-min Rain = 0
KTH1 141756Z 03004KT 32/22 A3009 RMK A01 T03180215  RH  054%=      5-min Rain = 0
KTH1 141757Z 05005KT 32/22 A3009 RMK A01 T03190215  RH  054%=      5-min Rain = 0
KTH1 141758Z 03006KT 32/22 A3009 RMK A01 T03220217  RH  054%=      5-min Rain = 0
KTH1 141759Z 01008KT 33/22 A3009 RMK A01 T03270216  RH  052%=      5-min Rain = 0
KTH1 141800Z 01007KT 33/22 A3009 RMK A01 T03270216  RH  052%=      5-min Rain = 0
KTH1 141801Z 35005KT 33/22 A3009 RMK A01 T03270216  RH  052%=      5-min Rain = 0
KTH1 141802Z 33003KT 33/22 A3008 RMK A01 T03260215  RH  052%=      5-min Rain = 0
KTH1 141803Z 05003G8KT 33/22 A3009 RMK A01 T03260218  RH  053%=      5-min Rain = 0
KTH1 141804Z 05008KT 33/22 A3009 RMK A01 T03300218  RH  052%=      5-min Rain = 0
KTH1 141805Z 02006KT 33/22 A3009 RMK A01 T03300219  RH  052%=      5-min Rain = 0
KTH1 141806Z 01007KT 33/22 A3009 RMK A01 T03310219  RH  052%=      5-min Rain = 0
KTH1 141807Z 02006KT 33/22 A3009 RMK A01 T03340219  RH  051%=      5-min Rain = 0
KTH1 141808Z 04007KT 34/22 A3008 RMK A01 T03350220  RH  051%=      5-min Rain = 0
KTH1 141809Z 02005KT 34/22 A3008 RMK A01 T03350219  RH  051%=      5-min Rain = 0
KTH1 141810Z 03005KT 33/22 A3008 RMK A01 T03340218  RH  051%=      5-min Rain = 0
KTH1 141811Z 02006KT 33/22 A3008 RMK A01 T03330219  RH  051%=      5-min Rain = 0
KTH1 141812Z 03006KT 33/22 A3008 RMK A01 T03340219  RH  051%=      5-min Rain = 0
KTH1 141813Z 05010KT 34/22 A3008 RMK A01 T03360219  RH  050%=      5-min Rain = 0
KTH1 141814Z 05007KT 34/22 A3008 RMK A01 T03380219  RH  050%=      5-min Rain = 0
KTH1 141815Z 05005KT 34/22 A3008 RMK A01 T03380219  RH  050%=      5-min Rain = 0
KTH1 141816Z 04006KT 34/22 A3008 RMK A01 T03390220  RH  050%=      5-min Rain = 0
KTH1 141817Z 03006KT 34/22 A3008 RMK A01 T03410220  RH  049%=      5-min Rain = 0
KTH1 141818Z 03004KT 34/22 A3008 RMK A01 T03400220  RH  050%=      5-min Rain = 0
KTH1 141819Z 36008KT 34/22 A3008 RMK A01 T03400219  RH  049%=      5-min Rain = 0
KTH1 141820Z 36008KT 34/22 A3008 RMK A01 T03360218  RH  050%=      5-min Rain = 0
KTH1 141821Z 00005KT 33/22 A3008 RMK A01 T03330219  RH  051%=      5-min Rain = 0
KTH1 141822Z 03004KT 33/22 A3008 RMK A01 T03340219  RH  051%=      5-min Rain = 0
KTH1 141823Z 03004KT 33/22 A3008 RMK A01 T03340217  RH  051%=      5-min Rain = 0
KTH1 141824Z 03004KT 33/22 A3008 RMK A01 T03320219  RH  051%=      5-min Rain = 0
KTH1 141825Z 36008KT 34/22 A3008 RMK A01 T03370220  RH  051%=      5-min Rain = 0
KTH1 141826Z 35006KT 34/22 A3008 RMK A01 T03370219  RH  050%=      5-min Rain = 0
KTH1 141827Z 33005KT 34/22 A3008 RMK A01 T03350219  RH  051%=      5-min Rain = 0
KTH1 141828Z 33003KT 33/22 A3008 RMK A01 T03330218  RH  051%=      5-min Rain = 0
KTH1 141829Z 32005G10KT 34/22 A3008 RMK A01 T03350220  RH  051%=      5-min Rain = 0
KTH1 141830Z 02009G14KT 34/22 A3007 RMK A01 T03360218  RH  050%=      5-min Rain = 0
KTH1 141831Z 03005G10KT 34/21 A3008 RMK A01 T03370214  RH  049%=      5-min Rain = 0
KTH1 141832Z 05003KT 34/22 A3007 RMK A01 T03360216  RH  049%=      5-min Rain = 0
KTH1 141833Z 35002KT 34/22 A3007 RMK A01 T03380217  RH  049%=      5-min Rain = 0
KTH1 141834Z 00003KT 34/22 A3007 RMK A01 T03390217  RH  049%=      5-min Rain = 0
KTH1 141835Z 00006KT 34/22 A3007 RMK A01 T03400218  RH  049%=      5-min Rain = 0
KTH1 141836Z 00006KT 34/22 A3007 RMK A01 T03420217  RH  048%=      5-min Rain = 0
KTH1 141837Z 06006KT 34/22 A3007 RMK A01 T03380217  RH  049%=      5-min Rain = 0
KTH1 141838Z 06004G9KT 34/21 A3007 RMK A01 T03370213  RH  048%=      5-min Rain = 0
KTH1 141839Z 07007KT 33/21 A3007 RMK A01 T03340214  RH  049%=      5-min Rain = 0
KTH1 141840Z 06008KT 33/21 A3007 RMK A01 T03320213  RH  050%=      5-min Rain = 0
KTH1 141841Z 07004KT 33/22 A3007 RMK A01 T03300215  RH  051%=      5-min Rain = 0
KTH1 141842Z 03004KT 34/22 A3007 RMK A01 T03350217  RH  050%=      5-min Rain = 0
KTH1 141843Z 05008KT 34/22 A3007 RMK A01 T03410215  RH  048%=      5-min Rain = 0
KTH1 141844Z 04006KT 34/21 A3006 RMK A01 T03410213  RH  047%=      5-min Rain = 0
KTH1 141845Z 04004KT 34/21 A3006 RMK A01 T03400213  RH  048%=      5-min Rain = 0
KTH1 141846Z 08011KT 34/22 A3006 RMK A01 T03410215  RH  048%=      5-min Rain = 0
KTH1 141847Z 07009KT 34/21 A3006 RMK A01 T03430213  RH  047%=      5-min Rain = 0
KTH1 141848Z 04006KT 34/22 A3006 RMK A01 T03430215  RH  048%=      5-min Rain = 0
KTH1 141849Z 02008KT 34/22 A3006 RMK A01 T03430215  RH  048%=      5-min Rain = 0
KTH1 141850Z 03007KT 34/22 A3006 RMK A01 T03410215  RH  048%=      5-min Rain = 0
KTH1 141851Z 03003KT 34/21 A3006 RMK A01 T03400214  RH  048%=      5-min Rain = 0
KTH1 141852Z 01003G8KT 34/22 A3006 RMK A01 T03370215  RH  049%=      5-min Rain = 0
KTH1 141853Z 00008KT 33/21 A3006 RMK A01 T03340214  RH  049%=      5-min Rain = 0
KTH1 141854Z 01006KT 33/21 A3006 RMK A01 T03310212  RH  050%=      5-min Rain = 0
KTH1 141855Z 00006KT 33/21 A3006 RMK A01 T03270212  RH  051%=      5-min Rain = 0
KTH1 141856Z 01007G12KT 33/21 A3006 RMK A01 T03250212  RH  051%=      5-min Rain = 0
KTH1 141857Z 35006KT 33/22 A3005 RMK A01 T03260215  RH  052%=      5-min Rain = 0
KTH1 141858Z 35005KT 33/22 A3005 RMK A01 T03320218  RH  051%=      5-min Rain = 0
KTH1 141859Z 02005KT 33/22 A3005 RMK A01 T03340215  RH  050%=      5-min Rain = 0
KTH1 141900Z 08004KT 33/22 A3005 RMK A01 T03340217  RH  050%=      5-min Rain = 0
KTH1 141901Z 08004KT 34/22 A3005 RMK A01 T03400218  RH  049%=      5-min Rain = 0
KTH1 141902Z 07006KT 34/22 A3005 RMK A01 T03430216  RH  047%=      5-min Rain = 0
KTH1 141903Z 09005KT 34/22 A3005 RMK A01 T03430216  RH  048%=      5-min Rain = 0
KTH1 141904Z 08003KT 34/22 A3005 RMK A01 T03440216  RH  047%=      5-min Rain = 0
KTH1 141905Z 06003KT 34/21 A3005 RMK A01 T03420214  RH  047%=      5-min Rain = 0
KTH1 141906Z 06009KT 34/21 A3005 RMK A01 T03390214  RH  048%=      5-min Rain = 0
KTH1 141907Z 06007KT 34/21 A3005 RMK A01 T03380213  RH  048%=      5-min Rain = 0
KTH1 141908Z 05008KT 34/22 A3005 RMK A01 T03420215  RH  048%=      5-min Rain = 0
KTH1 141909Z 07007KT 34/21 A3005 RMK A01 T03430214  RH  047%=      5-min Rain = 0
KTH1 141910Z 04005KT 34/22 A3005 RMK A01 T03430215  RH  047%=      5-min Rain = 0
KTH1 141911Z 02006KT 34/22 A3005 RMK A01 T03430216  RH  048%=      5-min Rain = 0
KTH1 141912Z 04009KT 34/22 A3005 RMK A01 T03420215  RH  048%=      5-min Rain = 0
KTH1 141913Z 05006KT 34/21 A3005 RMK A01 T03430214  RH  047%=      5-min Rain = 0
KTH1 141914Z 04006KT 35/22 A3005 RMK A01 T03450215  RH  047%=      5-min Rain = 0
KTH1 141915Z 05004KT 35/21 A3005 RMK A01 T03460213  RH  046%=      5-min Rain = 0
KTH1 141916Z 04005KT 34/21 A3005 RMK A01 T03430213  RH  047%=      5-min Rain = 0
KTH1 141917Z 06006KT 34/21 A3005 RMK A01 T03390214  RH  048%=      5-min Rain = 0
KTH1 141918Z 06005KT 34/22 A3005 RMK A01 T03390216  RH  049%=      5-min Rain = 0
KTH1 141919Z 04005KT 34/22 A3005 RMK A01 T03380215  RH  048%=      5-min Rain = 0
KTH1 141920Z 03008KT 34/21 A3005 RMK A01 T03360214  RH  049%=      5-min Rain = 0
KTH1 141921Z 04006KT 33/22 A3005 RMK A01 T03340215  RH  050%=      5-min Rain = 0
KTH1 141922Z 06005KT 34/22 A3004 RMK A01 T03350216  RH  050%=      5-min Rain = 0
KTH1 141923Z 01007KT 34/22 A3004 RMK A01 T03360215  RH  049%=      5-min Rain = 0
KTH1 141924Z 04009KT 34/22 A3004 RMK A01 T03350215  RH  049%=      5-min Rain = 0
KTH1 141925Z 03008KT 33/21 A3004 RMK A01 T03330214  RH  050%=      5-min Rain = 0
KTH1 141926Z 05005KT 33/21 A3004 RMK A01 T03320214  RH  050%=      5-min Rain = 0
KTH1 141927Z 05008KT 33/21 A3004 RMK A01 T03320213  RH  050%=      5-min Rain = 0
KTH1 141928Z 06006KT 33/21 A3004 RMK A01 T03320213  RH  050%=      5-min Rain = 0
KTH1 141929Z 03002KT 33/21 A3004 RMK A01 T03330212  RH  049%=      5-min Rain = 0
KTH1 141930Z 04004KT 33/21 A3004 RMK A01 T03340212  RH  049%=      5-min Rain = 0
KTH1 141931Z 04007KT 34/21 A3004 RMK A01 T03350213  RH  049%=      5-min Rain = 0
KTH1 141932Z 05007KT 34/21 A3004 RMK A01 T03370214  RH  048%=      5-min Rain = 0
KTH1 141933Z 06011KT 34/21 A3004 RMK A01 T03400213  RH  047%=      5-min Rain = 0
KTH1 141934Z 05008KT 34/21 A3004 RMK A01 T03420209  RH  046%=      5-min Rain = 0
KTH1 141935Z 05009KT 34/21 A3004 RMK A01 T03420210  RH  046%=      5-min Rain = 0
KTH1 141936Z 06007KT 34/21 A3004 RMK A01 T03440207  RH  045%=      5-min Rain = 0
KTH1 141937Z 07007KT 35/21 A3004 RMK A01 T03460208  RH  045%=      5-min Rain = 0
KTH1 141938Z 09007KT 35/21 A3004 RMK A01 T03480210  RH  045%=      5-min Rain = 0
KTH1 141939Z 10004KT 35/21 A3004 RMK A01 T03460211  RH  045%=      5-min Rain = 0
KTH1 141940Z 05002KT 34/21 A3004 RMK A01 T03420211  RH  046%=      5-min Rain = 0
KTH1 141941Z 08008KT 35/21 A3004 RMK A01 T03450212  RH  046%=      5-min Rain = 0
KTH1 141942Z 08009KT 35/21 A3004 RMK A01 T03480211  RH  045%=      5-min Rain = 0
KTH1 141943Z 08008KT 35/21 A3004 RMK A01 T03490209  RH  044%=      5-min Rain = 0
KTH1 141944Z 07006KT 35/21 A3004 RMK A01 T03510211  RH  044%=      5-min Rain = 0
KTH1 141945Z 05008KT 35/21 A3003 RMK A01 T03530211  RH  044%=      5-min Rain = 0
KTH1 141946Z 06008KT 35/21 A3003 RMK A01 T03520209  RH  043%=      5-min Rain = 0
KTH1 141947Z 05008KT 35/21 A3003 RMK A01 T03520207  RH  043%=      5-min Rain = 0
KTH1 141948Z 05007KT 35/21 A3004 RMK A01 T03510206  RH  043%=      5-min Rain = 0
KTH1 141949Z 04007KT 35/21 A3003 RMK A01 T03470206  RH  044%=      5-min Rain = 0
KTH1 141950Z 06006KT 35/21 A3003 RMK A01 T03450207  RH  045%=      5-min Rain = 0
KTH1 141951Z 08009KT 35/21 A3003 RMK A01 T03480209  RH  045%=      5-min Rain = 0
KTH1 141952Z 07006KT 35/21 A3003 RMK A01 T03510209  RH  044%=      5-min Rain = 0
KTH1 141953Z 08006KT 35/21 A3003 RMK A01 T03520209  RH  043%=      5-min Rain = 0
KTH1 141954Z 07007KT 35/21 A3003 RMK A01 T03500209  RH  044%=      5-min Rain = 0
KTH1 141955Z 06009KT 35/21 A3003 RMK A01 T03480210  RH  045%=      5-min Rain = 0
KTH1 141956Z 07009KT 35/21 A3003 RMK A01 T03480209  RH  044%=      5-min Rain = 0
KTH1 141957Z 08009KT 35/21 A3003 RMK A01 T03460209  RH  045%=      5-min Rain = 0
KTH1 141958Z 08007G12KT 35/21 A3003 RMK A01 T03470209  RH  045%=      5-min Rain = 0
KTH1 141959Z 07008KT 35/21 A3003 RMK A01 T03460211  RH  045%=      5-min Rain = 0
KTH1 142000Z 06010KT 35/21 A3003 RMK A01 T03480210  RH  045%=      5-min Rain = 0
KTH1 142001Z 06007KT 35/21 A3003 RMK A01 T03480211  RH  045%=      5-min Rain = 0
KTH1 142002Z 07008KT 35/21 A3003 RMK A01 T03510210  RH  044%=      5-min Rain = 0
KTH1 142003Z 07008KT 35/21 A3003 RMK A01 T03520211  RH  044%=      5-min Rain = 0
KTH1 142004Z 06008KT 35/21 A3003 RMK A01 T03530210  RH  043%=      5-min Rain = 0
KTH1 142005Z 07009KT 36/21 A3003 RMK A01 T03550210  RH  043%=      5-min Rain = 0
KTH1 142006Z 06009KT 35/21 A3003 RMK A01 T03530210  RH  043%=      5-min Rain = 0
KTH1 142007Z 06009KT 35/21 A3003 RMK A01 T03500209  RH  044%=      5-min Rain = 0
KTH1 142008Z 11004KT 34/21 A3003 RMK A01 T03430206  RH  045%=      5-min Rain = 0
KTH1 142009Z 13004KT 34/21 A3002 RMK A01 T03390206  RH  046%=      5-min Rain = 0
KTH1 142010Z 13002KT 34/21 A3002 RMK A01 T03380209  RH  047%=      5-min Rain = 0
KTH1 142011Z 12003KT 34/21 A3002 RMK A01 T03400207  RH  046%=      5-min Rain = 0
KTH1 142012Z 06005KT 34/21 A3002 RMK A01 T03420209  RH  046%=      5-min Rain = 0
KTH1 142013Z 05006KT 35/21 A3002 RMK A01 T03450209  RH  045%=      5-min Rain = 0
KTH1 142014Z 04007KT 35/21 A3002 RMK A01 T03460209  RH  045%=      5-min Rain = 0
KTH1 142015Z 06008KT 35/21 A3002 RMK A01 T03460207  RH  044%=      5-min Rain = 0
KTH1 142016Z 06007KT 34/21 A3002 RMK A01 T03430205  RH  044%=      5-min Rain = 0
KTH1 142017Z 06006KT 34/21 A3002 RMK A01 T03400206  RH  046%=      5-min Rain = 0
KTH1 142018Z 05008KT 34/21 A3002 RMK A01 T03410208  RH  046%=      5-min Rain = 0
KTH1 142019Z 04010KT 35/21 A3002 RMK A01 T03450208  RH  045%=      5-min Rain = 0
KTH1 142020Z 04007KT 35/21 A3002 RMK A01 T03480208  RH  044%=      5-min Rain = 0
KTH1 142021Z 01006KT 35/21 A3002 RMK A01 T03520208  RH  043%=      5-min Rain = 0
KTH1 142022Z 03008KT 35/21 A3002 RMK A01 T03540208  RH  043%=      5-min Rain = 0
KTH1 142023Z 05010KT 36/21 A3002 RMK A01 T03550208  RH  043%=      5-min Rain = 0
KTH1 142024Z 05008KT 36/21 A3002 RMK A01 T03550207  RH  042%=      5-min Rain = 0
KTH1 142025Z 06008KT 36/21 A3002 RMK A01 T03550207  RH  042%=      5-min Rain = 0
KTH1 142026Z 03006KT 36/21 A3002 RMK A01 T03550205  RH  042%=      5-min Rain = 0
KTH1 142027Z 04007KT 35/21 A3002 RMK A01 T03530205  RH  042%=      5-min Rain = 0
KTH1 142028Z 03008KT 35/21 A3002 RMK A01 T03510205  RH  043%=      5-min Rain = 0
KTH1 142029Z 03010KT 35/21 A3001 RMK A01 T03490205  RH  043%=      5-min Rain = 0
KTH1 142030Z 05009KT 35/21 A3002 RMK A01 T03450205  RH  044%=      5-min Rain = 0
KTH1 142031Z 03007G12KT 34/21 A3001 RMK A01 T03430205  RH  045%=      5-min Rain = 0
KTH1 142032Z 04008KT 34/21 A3001 RMK A01 T03430206  RH  045%=      5-min Rain = 0
KTH1 142033Z 03007KT 34/21 A3001 RMK A01 T03440205  RH  044%=      5-min Rain = 0
KTH1 142034Z 03004KT 35/21 A3001 RMK A01 T03450205  RH  044%=      5-min Rain = 0
KTH1 142035Z 03003KT 35/21 A3001 RMK A01 T03460207  RH  044%=      5-min Rain = 0
KTH1 142036Z 04001KT 35/21 A3001 RMK A01 T03490208  RH  044%=      5-min Rain = 0
KTH1 142037Z 06004KT 35/21 A3001 RMK A01 T03500209  RH  044%=      5-min Rain = 0
KTH1 142038Z 05005KT 35/21 A3001 RMK A01 T03510207  RH  043%=      5-min Rain = 0
KTH1 142039Z 06006G12KT 35/21 A3001 RMK A01 T03500207  RH  043%=      5-min Rain = 0
KTH1 142040Z 07010KT 35/21 A3001 RMK A01 T03480206  RH  044%=      5-min Rain = 0
KTH1 142041Z 06010KT 35/21 A3001 RMK A01 T03460205  RH  044%=      5-min Rain = 0
KTH1 142042Z 06012KT 35/21 A3001 RMK A01 T03450205  RH  044%=      5-min Rain = 0
KTH1 142043Z 07009KT 35/21 A3001 RMK A01 T03470205  RH  044%=      5-min Rain = 0
KTH1 142044Z 07009KT 35/21 A30 RMK A01 T03490205  RH  043%=      5-min Rain = 0
KTH1 142045Z 07010KT 35/20 A30 RMK A01 T03490204  RH  043%=      5-min Rain = 0
KTH1 142046Z 06007KT 34/20 A30 RMK A01 T03440204  RH  044%=      5-min Rain = 0
KTH1 142047Z 06007KT 34/20 A30 RMK A01 T03430204  RH  044%=      5-min Rain = 0
KTH1 142048Z 05003KT 35/21 A30 RMK A01 T03450206  RH  044%=      5-min Rain = 0
KTH1 142049Z 07006KT 35/21 A30 RMK A01 T03520208  RH  043%=      5-min Rain = 0
KTH1 142050Z 09007KT 36/21 A30 RMK A01 T03550206  RH  042%=      5-min Rain = 0
KTH1 142051Z 08006KT 36/21 A30 RMK A01 T03590207  RH  041%=      5-min Rain = 0
KTH1 142052Z 04005KT 36/21 A30 RMK A01 T03610205  RH  040%=      5-min Rain = 0
KTH1 142053Z 04008KT 36/20 A30 RMK A01 T03590204  RH  041%=      5-min Rain = 0
KTH1 142054Z 04008KT 36/20 A30 RMK A01 T03580204  RH  041%=      5-min Rain = 0
KTH1 142055Z 04008KT 36/20 A30 RMK A01 T03560204  RH  041%=      5-min Rain = 0
KTH1 142056Z 03005G10KT 36/20 A30 RMK A01 T03550204  RH  041%=      5-min Rain = 0
KTH1 142057Z 04007KT 35/20 A30 RMK A01 T03530202  RH  042%=      5-min Rain = 0
KTH1 142058Z 07006KT 35/20 A30 RMK A01 T03500200  RH  042%=      5-min Rain = 0
KTH1 142059Z 05003KT 35/20 A30 RMK A01 T03460199  RH  042%=      5-min Rain = 0
KTH1 142100Z 01005KT 34/20 A30 RMK A01 T03440199  RH  043%=      5-min Rain = 0
KTH1 142101Z 02004KT 34/20 A30 RMK A01 T03430201  RH  043%=      5-min Rain = 0
KTH1 142102Z 01009KT 35/20 A30 RMK A01 T03450203  RH  044%=      5-min Rain = 0
KTH1 142103Z 02006KT 35/21 A30 RMK A01 T03480205  RH  043%=      5-min Rain = 0
KTH1 142104Z 05006KT 35/21 A2999 RMK A01 T03510206  RH  043%=      5-min Rain = 0
KTH1 142105Z 03009KT 36/21 A2999 RMK A01 T03550207  RH  042%=      5-min Rain = 0
KTH1 142106Z 02007KT 36/20 A2999 RMK A01 T03560204  RH  041%=      5-min Rain = 0
KTH1 142107Z 03008KT 35/20 A2999 RMK A01 T03540204  RH  042%=      5-min Rain = 0
KTH1 142108Z 36008KT 36/20 A2999 RMK A01 T03550204  RH  041%=      5-min Rain = 0
KTH1 142109Z 01005KT 35/21 A2999 RMK A01 T03540206  RH  042%=      5-min Rain = 0
KTH1 142110Z 04006KT 36/21 A2999 RMK A01 T03560206  RH  042%=      5-min Rain = 0
KTH1 142111Z 05007KT 36/20 A2999 RMK A01 T03570203  RH  041%=      5-min Rain = 0
KTH1 142112Z 08008KT 36/20 A2999 RMK A01 T03570203  RH  041%=      5-min Rain = 0
KTH1 142113Z 09004KT 36/20 A2999 RMK A01 T03570203  RH  041%=      5-min Rain = 0
KTH1 142114Z 09004KT 36/20 A2999 RMK A01 T03570203  RH  041%=      5-min Rain = 0
KTH1 142115Z 07005KT 36/21 A2999 RMK A01 T03600205  RH  041%=      5-min Rain = 0
KTH1 142116Z 07006KT 36/20 A2999 RMK A01 T03630201  RH  039%=      5-min Rain = 0
KTH1 142117Z 10007KT 36/20 A2999 RMK A01 T03600198  RH  039%=      5-min Rain = 0
KTH1 142118Z 08004KT 36/20 A2999 RMK A01 T03550198  RH  040%=      5-min Rain = 0
KTH1 142119Z 06005KT 36/20 A2999 RMK A01 T03560198  RH  040%=      5-min Rain = 0
KTH1 142120Z 07006KT 36/20 A2999 RMK A01 T03590200  RH  039%=      5-min Rain = 0
KTH1 142121Z 09005G11KT 36/20 A2999 RMK A01 T03610202  RH  040%=      5-min Rain = 0
KTH1 142122Z 09007KT 36/20 A2999 RMK A01 T03600204  RH  040%=      5-min Rain = 0
KTH1 142123Z 08008KT 36/20 A2998 RMK A01 T03590204  RH  041%=      5-min Rain = 0
KTH1 142124Z 05005KT 36/21 A2998 RMK A01 T03620207  RH  040%=      5-min Rain = 0
KTH1 142125Z 07010KT 37/21 A2998 RMK A01 T03670206  RH  039%=      5-min Rain = 0
KTH1 142126Z 05008KT 36/20 A2998 RMK A01 T03630203  RH  039%=      5-min Rain = 0
KTH1 142127Z 05005KT 36/20 A2998 RMK A01 T03570202  RH  041%=      5-min Rain = 0
KTH1 142128Z 07006KT 35/20 A2998 RMK A01 T03530203  RH  042%=      5-min Rain = 0
KTH1 142129Z 08009G14KT 35/20 A2998 RMK A01 T03530203  RH  042%=      5-min Rain = 0
KTH1 142130Z 09008KT 35/20 A2998 RMK A01 T03530203  RH  042%=      5-min Rain = 0
KTH1 142131Z 08010KT 35/20 A2998 RMK A01 T03530203  RH  041%=      5-min Rain = 0
KTH1 142132Z 08009KT 35/20 A2998 RMK A01 T03540202  RH  041%=      5-min Rain = 0
KTH1 142133Z 08009KT 36/20 A2998 RMK A01 T03550203  RH  041%=      5-min Rain = 0
KTH1 142134Z 08005KT 36/20 A2998 RMK A01 T03570204  RH  041%=      5-min Rain = 0
KTH1 142135Z 06007KT 36/20 A2998 RMK A01 T03590204  RH  040%=      5-min Rain = 0
KTH1 142136Z 06008KT 36/20 A2998 RMK A01 T03570201  RH  040%=      5-min Rain = 0
KTH1 142137Z 07008KT 35/20 A2998 RMK A01 T03520201  RH  041%=      5-min Rain = 0
KTH1 142138Z 06004KT 35/20 A2998 RMK A01 T03470200  RH  042%=      5-min Rain = 0
KTH1 142139Z 08004KT 35/20 A2998 RMK A01 T03450201  RH  043%=      5-min Rain = 0
KTH1 142140Z 06004KT 35/20 A2998 RMK A01 T03460202  RH  043%=      5-min Rain = 0
KTH1 142141Z 03005KT 35/20 A2998 RMK A01 T03490203  RH  043%=      5-min Rain = 0
KTH1 142142Z 04004KT 35/20 A2998 RMK A01 T03520204  RH  042%=      5-min Rain = 0
KTH1 142143Z 04006KT 36/21 A2997 RMK A01 T03560205  RH  042%=      5-min Rain = 0
KTH1 142144Z 06010KT 36/21 A2997 RMK A01 T03590206  RH  041%=      5-min Rain = 0
KTH1 142145Z 06007KT 36/20 A2997 RMK A01 T03620204  RH  040%=      5-min Rain = 0
KTH1 142146Z 04007KT 36/21 A2997 RMK A01 T03620205  RH  040%=      5-min Rain = 0
KTH1 142147Z 05006KT 36/21 A2997 RMK A01 T03620205  RH  040%=      5-min Rain = 0
KTH1 142148Z 05007KT 36/21 A2997 RMK A01 T03640206  RH  040%=      5-min Rain = 0
KTH1 142149Z 07007KT 37/21 A2997 RMK A01 T03650205  RH  040%=      5-min Rain = 0
KTH1 142150Z 07005KT 36/21 A2997 RMK A01 T03630206  RH  040%=      5-min Rain = 0
KTH1 142151Z 07010G16KT 36/21 A2997 RMK A01 T03620205  RH  040%=      5-min Rain = 0
KTH1 142152Z 08009KT 36/20 A2997 RMK A01 T03620203  RH  040%=      5-min Rain = 0
KTH1 142153Z 07009KT 36/20 A2997 RMK A01 T03580202  RH  040%=      5-min Rain = 0
KTH1 142154Z 08009KT 35/20 A2997 RMK A01 T03540203  RH  041%=      5-min Rain = 0
KTH1 142155Z 08010KT 36/20 A2997 RMK A01 T03550203  RH  041%=      5-min Rain = 0
KTH1 142156Z 07010KT 36/20 A2997 RMK A01 T03560202  RH  041%=      5-min Rain = 0
KTH1 142157Z 06010KT 35/20 A2997 RMK A01 T03540202  RH  041%=      5-min Rain = 0
KTH1 142158Z 04009KT 35/20 A2997 RMK A01 T03530200  RH  041%=      5-min Rain = 0
KTH1 142159Z 05010KT 35/20 A2997 RMK A01 T03500199  RH  041%=      5-min Rain = 0
KTH1 142200Z 05010KT 35/20 A2997 RMK A01 T03490199  RH  041%=      5-min Rain = 0
KTH1 142201Z 06005KT 35/20 A2997 RMK A01 T03510199  RH  041%=      5-min Rain = 0
KTH1 142202Z 05006KT 36/20 A2997 RMK A01 T03560201  RH  040%=      5-min Rain = 0
KTH1 142203Z 05007KT 36/20 A2997 RMK A01 T03580200  RH  040%=      5-min Rain = 0
KTH1 142204Z 06007KT 36/20 A2997 RMK A01 T03580200  RH  040%=      5-min Rain = 0
KTH1 142205Z 08006KT 36/20 A2997 RMK A01 T03580199  RH  040%=      5-min Rain = 0
KTH1 142206Z 06007KT 36/20 A2997 RMK A01 T03570199  RH  040%=      5-min Rain = 0
KTH1 142207Z 06008KT 36/20 A2997 RMK A01 T03560197  RH  039%=      5-min Rain = 0
KTH1 142208Z 04005KT 36/20 A2997 RMK A01 T03570198  RH  040%=      5-min Rain = 0
KTH1 142209Z 03006KT 36/20 A2997 RMK A01 T03580198  RH  039%=      5-min Rain = 0
KTH1 142210Z 05006KT 36/20 A2997 RMK A01 T03590197  RH  039%=      5-min Rain = 0
KTH1 142211Z 03004KT 36/20 A2997 RMK A01 T03600198  RH  039%=      5-min Rain = 0
KTH1 142212Z 07008KT 36/20 A2997 RMK A01 T03620199  RH  039%=      5-min Rain = 0
KTH1 142213Z 08007KT 36/20 A2997 RMK A01 T03630200  RH  039%=      5-min Rain = 0
KTH1 142214Z 08007KT 36/20 A2997 RMK A01 T03630200  RH  039%=      5-min Rain = 0
KTH1 142215Z 08009KT 36/20 A2997 RMK A01 T03600200  RH  039%=      5-min Rain = 0
KTH1 142216Z 07006KT 36/20 A2997 RMK A01 T03570201  RH  040%=      5-min Rain = 0
KTH1 142217Z 07006KT 36/20 A2997 RMK A01 T03580203  RH  040%=      5-min Rain = 0
KTH1 142218Z 09008KT 36/20 A2997 RMK A01 T03600202  RH  040%=      5-min Rain = 0
KTH1 142219Z 08009KT 36/20 A2997 RMK A01 T03590201  RH  040%=      5-min Rain = 0
KTH1 142220Z 09011KT 36/20 A2997 RMK A01 T03570201  RH  040%=      5-min Rain = 0
KTH1 142221Z 09009KT 35/20 A2997 RMK A01 T03540200  RH  041%=      5-min Rain = 0
KTH1 142222Z 09008KT 35/20 A2997 RMK A01 T03520200  RH  041%=      5-min Rain = 0
KTH1 142223Z 08007KT 35/20 A2997 RMK A01 T03520200  RH  041%=      5-min Rain = 0
KTH1 142224Z 09006KT 35/20 A2997 RMK A01 T03520200  RH  041%=      5-min Rain = 0
KTH1 142225Z 08008KT 35/20 A2997 RMK A01 T03530201  RH  041%=      5-min Rain = 0
KTH1 142226Z 06007KT 36/20 A2997 RMK A01 T03550201  RH  040%=      5-min Rain = 0
KTH1 142227Z 07009KT 36/20 A2997 RMK A01 T03560201  RH  040%=      5-min Rain = 0
KTH1 142228Z 07008G13KT 36/20 A2997 RMK A01 T03570200  RH  040%=      5-min Rain = 0
KTH1 142229Z 07010KT 36/20 A2997 RMK A01 T03570200  RH  040%=      5-min Rain = 0
KTH1 142230Z 06006KT 36/20 A2997 RMK A01 T03560200  RH  040%=      5-min Rain = 0
KTH1 142231Z 05005KT 36/20 A2997 RMK A01 T03550201  RH  041%=      5-min Rain = 0
KTH1 142232Z 06006KT 36/20 A2997 RMK A01 T03550201  RH  040%=      5-min Rain = 0
KTH1 142233Z 05009KT 36/20 A2997 RMK A01 T03560202  RH  041%=      5-min Rain = 0
KTH1 142234Z 04007KT 36/20 A2997 RMK A01 T03550203  RH  041%=      5-min Rain = 0
KTH1 142235Z 04009KT 36/20 A2997 RMK A01 T03550203  RH  041%=      5-min Rain = 0
KTH1 142236Z 04008KT 35/20 A2996 RMK A01 T03540202  RH  041%=      5-min Rain = 0
KTH1 142237Z 03005KT 35/20 A2996 RMK A01 T03520203  RH  042%=      5-min Rain = 0
KTH1 142238Z 04005KT 35/20 A2996 RMK A01 T03520203  RH  042%=      5-min Rain = 0
KTH1 142239Z 05005KT 35/20 A2996 RMK A01 T03540204  RH  042%=      5-min Rain = 0
KTH1 142240Z 05008KT 36/20 A2996 RMK A01 T03550203  RH  041%=      5-min Rain = 0
KTH1 142241Z 06007KT 36/20 A2996 RMK A01 T03560202  RH  041%=      5-min Rain = 0
KTH1 142242Z 08010KT 36/20 A2997 RMK A01 T03560202  RH  041%=      5-min Rain = 0
KTH1 142243Z 07010KT 36/20 A2997 RMK A01 T03550201  RH  041%=      5-min Rain = 0
KTH1 142244Z 08008KT 35/20 A2997 RMK A01 T03520200  RH  041%=      5-min Rain = 0
KTH1 142245Z 09005KT 35/20 A2997 RMK A01 T03510200  RH  041%=      5-min Rain = 0
KTH1 142246Z 06007KT 35/20 A2997 RMK A01 T03500201  RH  042%=      5-min Rain = 0
KTH1 142247Z 08006KT 35/20 A2997 RMK A01 T03510200  RH  041%=      5-min Rain = 0
KTH1 142248Z 07006KT 35/20 A2997 RMK A01 T03520201  RH  041%=      5-min Rain = 0
KTH1 142249Z 07004KT 35/20 A2997 RMK A01 T03530202  RH  041%=      5-min Rain = 0
KTH1 142250Z 04006KT 36/20 A2997 RMK A01 T03550203  RH  041%=      5-min Rain = 0
KTH1 142251Z 05007KT 36/20 A2997 RMK A01 T03560202  RH  041%=      5-min Rain = 0
KTH1 142252Z 05007KT 36/20 A2997 RMK A01 T03580201  RH  040%=      5-min Rain = 0
KTH1 142253Z 05004KT 36/20 A2997 RMK A01 T03580200  RH  040%=      5-min Rain = 0
KTH1 142254Z 03006KT 36/20 A2997 RMK A01 T03560200  RH  040%=      5-min Rain = 0
KTH1 142255Z 04006G11KT 36/20 A2997 RMK A01 T03550200  RH  040%=      5-min Rain = 0
KTH1 142256Z 05008G13KT 36/20 A2997 RMK A01 T03550201  RH  041%=      5-min Rain = 0
KTH1 142257Z 06009KT 36/20 A2997 RMK A01 T03560201  RH  040%=      5-min Rain = 0
KTH1 142258Z 05005KT 36/20 A2997 RMK A01 T03550200  RH  040%=      5-min Rain = 0
KTH1 142259Z 04007KT 36/20 A2997 RMK A01 T03550200  RH  041%=      5-min Rain = 0
KTH1 142300Z 04007KT 35/20 A2997 RMK A01 T03530201  RH  041%=      5-min Rain = 0
KTH1 142301Z 03006KT 35/20 A2997 RMK A01 T03520201  RH  041%=      5-min Rain = 0
KTH1 142302Z 04006KT 35/20 A2997 RMK A01 T03520201  RH  041%=      5-min Rain = 0
KTH1 142303Z 06005KT 35/20 A2997 RMK A01 T03520199  RH  041%=      5-min Rain = 0
KTH1 142304Z 05004KT 35/20 A2997 RMK A01 T03510199  RH  041%=      5-min Rain = 0
KTH1 142305Z 07006G11KT 35/20 A2997 RMK A01 T03500199  RH  041%=      5-min Rain = 0
KTH1 142306Z 07009KT 35/20 A2997 RMK A01 T03510198  RH  041%=      5-min Rain = 0
KTH1 142307Z 07008KT 35/20 A2997 RMK A01 T03500199  RH  041%=      5-min Rain = 0
KTH1 142308Z 06007KT 35/20 A2997 RMK A01 T03490199  RH  042%=      5-min Rain = 0
KTH1 142309Z 04008KT 35/20 A2997 RMK A01 T03510200  RH  041%=      5-min Rain = 0
KTH1 142310Z 04010KT 35/20 A2997 RMK A01 T03520196  RH  040%=      5-min Rain = 0
KTH1 142311Z 04007KT 35/20 A2997 RMK A01 T03480195  RH  041%=      5-min Rain = 0
KTH1 142312Z 05007KT 35/20 A2997 RMK A01 T03470197  RH  041%=      5-min Rain = 0
KTH1 142313Z 04007KT 35/20 A2997 RMK A01 T03480196  RH  041%=      5-min Rain = 0
KTH1 142314Z 04007KT 35/20 A2997 RMK A01 T03490196  RH  041%=      5-min Rain = 0
KTH1 142315Z 05006G13KT 35/20 A2997 RMK A01 T03490197  RH  041%=      5-min Rain = 0
KTH1 142316Z 05011KT 35/19 A2997 RMK A01 T03500193  RH  040%=      5-min Rain = 0
KTH1 142317Z 06007KT 35/19 A2997 RMK A01 T03500192  RH  039%=      5-min Rain = 0
KTH1 142318Z 05005KT 35/19 A2997 RMK A01 T03500192  RH  039%=      5-min Rain = 0
KTH1 142319Z 05008KT 35/19 A2997 RMK A01 T03510191  RH  039%=      5-min Rain = 0
KTH1 142320Z 04008KT 35/19 A2997 RMK A01 T03510190  RH  039%=      5-min Rain = 0
KTH1 142321Z 04008KT 35/19 A2997 RMK A01 T03510190  RH  039%=      5-min Rain = 0
KTH1 142322Z 04005KT 35/19 A2997 RMK A01 T03500190  RH  039%=      5-min Rain = 0
KTH1 142323Z 05007KT 35/19 A2997 RMK A01 T03510191  RH  039%=      5-min Rain = 0
KTH1 142324Z 07008G13KT 35/19 A2997 RMK A01 T03510189  RH  038%=      5-min Rain = 0
KTH1 142325Z 06007KT 35/19 A2997 RMK A01 T03510189  RH  038%=      5-min Rain = 0
KTH1 142326Z 06007KT 35/19 A2997 RMK A01 T03510187  RH  038%=      5-min Rain = 0
KTH1 142327Z 06007KT 35/19 A2998 RMK A01 T03510186  RH  038%=      5-min Rain = 0
KTH1 142328Z 05005KT 35/19 A2998 RMK A01 T03510187  RH  038%=      5-min Rain = 0
KTH1 142329Z 06006KT 35/19 A2998 RMK A01 T03510189  RH  038%=      5-min Rain = 0
KTH1 142330Z 07007KT 35/19 A2998 RMK A01 T03510189  RH  039%=      5-min Rain = 0
KTH1 142331Z 07008KT 35/19 A2998 RMK A01 T03510191  RH  039%=      5-min Rain = 0
KTH1 142332Z 08006KT 35/19 A2997 RMK A01 T03490192  RH  040%=      5-min Rain = 0
KTH1 142333Z 07008KT 35/19 A2997 RMK A01 T03500193  RH  040%=      5-min Rain = 0
KTH1 142334Z 08005KT 35/19 A2997 RMK A01 T03500192  RH  040%=      5-min Rain = 0
KTH1 142335Z 08004KT 35/19 A2997 RMK A01 T03500192  RH  039%=      5-min Rain = 0
KTH1 142336Z 08005KT 35/19 A2997 RMK A01 T03500193  RH  040%=      5-min Rain = 0
KTH1 142337Z 09004KT 35/19 A2997 RMK A01 T03510193  RH  040%=      5-min Rain = 0
KTH1 142338Z 08003KT 35/19 A2997 RMK A01 T03500194  RH  040%=      5-min Rain = 0
KTH1 142339Z 09004KT 35/19 A2997 RMK A01 T03490194  RH  040%=      5-min Rain = 0
KTH1 142340Z 07006KT 35/20 A2997 RMK A01 T03490195  RH  041%=      5-min Rain = 0
KTH1 142341Z 08009KT 35/20 A2997 RMK A01 T03490197  RH  041%=      5-min Rain = 0
KTH1 142342Z 09006KT 35/20 A2997 RMK A01 T03490196  RH  041%=      5-min Rain = 0
KTH1 142343Z 09005KT 35/20 A2997 RMK A01 T03480196  RH  041%=      5-min Rain = 0
KTH1 142344Z 09006KT 35/20 A2997 RMK A01 T03480198  RH  041%=      5-min Rain = 0
KTH1 142345Z 06005KT 35/20 A2997 RMK A01 T03490199  RH  042%=      5-min Rain = 0
KTH1 142346Z 05007KT 35/20 A2997 RMK A01 T03490199  RH  042%=      5-min Rain = 0
KTH1 142347Z 05006KT 35/20 A2997 RMK A01 T03490199  RH  042%=      5-min Rain = 0
KTH1 142348Z 04005KT 35/20 A2997 RMK A01 T03480200  RH  042%=      5-min Rain = 0
KTH1 142349Z 03006KT 35/20 A2997 RMK A01 T03480200  RH  042%=      5-min Rain = 0
KTH1 142350Z 04006KT 35/20 A2997 RMK A01 T03480200  RH  042%=      5-min Rain = 0
KTH1 142351Z 04005KT 35/20 A2997 RMK A01 T03470199  RH  042%=      5-min Rain = 0
KTH1 142352Z 06005KT 35/20 A2997 RMK A01 T03460199  RH  042%=      5-min Rain = 0
KTH1 142353Z 06005KT 35/20 A2997 RMK A01 T03460200  RH  042%=      5-min Rain = 0
KTH1 142354Z 04004KT 35/20 A2997 RMK A01 T03460200  RH  042%=      5-min Rain = 0
KTH1 142355Z 04003KT 35/20 A2997 RMK A01 T03470200  RH  042%=      5-min Rain = 0
KTH1 142356Z 05006KT 35/20 A2997 RMK A01 T03470201  RH  042%=      5-min Rain = 0
KTH1 142357Z 08008KT 35/20 A2997 RMK A01 T03470201  RH  042%=      5-min Rain = 0
KTH1 142358Z 09008KT 35/20 A2997 RMK A01 T03470201  RH  043%=      5-min Rain = 0
KTH1 142359Z 09006KT 35/20 A2997 RMK A01 T03460200  RH  043%=      5-min Rain = 0
KTH1 150000Z 09004KT 35/20 A2997 RMK A01 T03450200  RH  043%=      5-min Rain = 0
KTH1 150001Z 05005KT 34/20 A2997 RMK A01 T03440200  RH  043%=      5-min Rain = 0
KTH1 150002Z 04006KT 34/20 A2997 RMK A01 T03440200  RH  043%=      5-min Rain = 0
KTH1 150003Z 06005KT 35/20 A2997 RMK A01 T03450199  RH  042%=      5-min Rain = 0
KTH1 150004Z 06005KT 35/20 A2997 RMK A01 T03450199  RH  042%=      5-min Rain = 0
KTH1 150005Z 05005KT 34/20 A2997 RMK A01 T03440199  RH  043%=      5-min Rain = 0
KTH1 150006Z 05007KT 34/20 A2997 RMK A01 T03440199  RH  043%=      5-min Rain = 0
KTH1 150007Z 05006KT 34/20 A2997 RMK A01 T03440198  RH  042%=      5-min Rain = 0
KTH1 150008Z 05007KT 34/20 A2997 RMK A01 T03440199  RH  043%=      5-min Rain = 0
KTH1 150009Z 06007KT 34/20 A2997 RMK A01 T03440198  RH  042%=      5-min Rain = 0
KTH1 150010Z 06006KT 34/20 A2997 RMK A01 T03430198  RH  042%=      5-min Rain = 0
KTH1 150011Z 06005KT 34/20 A2997 RMK A01 T03430198  RH  043%=      5-min Rain = 0
KTH1 150012Z 06002KT 34/20 A2997 RMK A01 T03430198  RH  043%=      5-min Rain = 0
KTH1 150013Z 05004KT 34/20 A2997 RMK A01 T03430199  RH  043%=      5-min Rain = 0
KTH1 150014Z 04005KT 34/20 A2997 RMK A01 T03440199  RH  043%=      5-min Rain = 0
KTH1 150015Z 06007KT 34/20 A2997 RMK A01 T03440199  RH  043%=      5-min Rain = 0
KTH1 150016Z 06007KT 34/20 A2997 RMK A01 T03440199  RH  043%=      5-min Rain = 0
KTH1 150017Z 06007KT 34/20 A2997 RMK A01 T03430199  RH  043%=      5-min Rain = 0
KTH1 150018Z 06005KT 34/20 A2997 RMK A01 T03430199  RH  043%=      5-min Rain = 0
KTH1 150019Z 05006KT 34/20 A2997 RMK A01 T03420197  RH  043%=      5-min Rain = 0
KTH1 150020Z 06005KT 34/20 A2997 RMK A01 T03420197  RH  043%=      5-min Rain = 0
KTH1 150021Z 06006KT 34/20 A2997 RMK A01 T03420197  RH  043%=      5-min Rain = 0
KTH1 150022Z 06004KT 34/20 A2997 RMK A01 T03420195  RH  042%=      5-min Rain = 0
KTH1 150023Z 06006KT 34/20 A2997 RMK A01 T03410195  RH  042%=      5-min Rain = 0
KTH1 150024Z 05004KT 34/20 A2997 RMK A01 T03400195  RH  042%=      5-min Rain = 0
KTH1 150025Z 06005KT 34/20 A2997 RMK A01 T03400196  RH  043%=      5-min Rain = 0
KTH1 150026Z 06005KT 34/20 A2997 RMK A01 T03400196  RH  043%=      5-min Rain = 0
KTH1 150027Z 06007KT 34/20 A2997 RMK A01 T03400196  RH  043%=      5-min Rain = 0
KTH1 150028Z 06005KT 34/20 A2997 RMK A01 T03400196  RH  043%=      5-min Rain = 0
KTH1 150029Z 05003KT 34/20 A2997 RMK A01 T03390197  RH  043%=      5-min Rain = 0
KTH1 150030Z 05004KT 34/20 A2997 RMK A01 T03390196  RH  043%=      5-min Rain = 0
KTH1 150031Z 06004KT 34/20 A2997 RMK A01 T03390196  RH  043%=      5-min Rain = 0
KTH1 150032Z 05004KT 34/20 A2997 RMK A01 T03390197  RH  043%=      5-min Rain = 0
KTH1 150033Z 06005KT 34/20 A2997 RMK A01 T03390197  RH  043%=      5-min Rain = 0
KTH1 150034Z 05005KT 34/20 A2997 RMK A01 T03390197  RH  043%=      5-min Rain = 0
KTH1 150035Z 06006KT 34/20 A2997 RMK A01 T03380198  RH  044%=      5-min Rain = 0
KTH1 150036Z 07004KT 34/20 A2997 RMK A01 T03380197  RH  044%=      5-min Rain = 0
KTH1 150037Z 07004KT 34/20 A2997 RMK A01 T03370198  RH  044%=      5-min Rain = 0
KTH1 150038Z 07004KT 34/20 A2997 RMK A01 T03370200  RH  045%=      5-min Rain = 0
KTH1 150039Z 07005KT 34/20 A2997 RMK A01 T03370201  RH  045%=      5-min Rain = 0
KTH1 150040Z 08003KT 34/20 A2997 RMK A01 T03360202  RH  045%=      5-min Rain = 0
KTH1 150041Z 08004KT 34/20 A2997 RMK A01 T03350202  RH  046%=      5-min Rain = 0
KTH1 150042Z 09004KT 34/20 A2997 RMK A01 T03350203  RH  046%=      5-min Rain = 0
KTH1 150043Z 08004KT 34/20 A2997 RMK A01 T03350204  RH  046%=      5-min Rain = 0
KTH1 150044Z 09004KT 34/20 A2997 RMK A01 T03350204  RH  046%=      5-min Rain = 0
KTH1 150045Z 09004KT 33/20 A2997 RMK A01 T03340204  RH  046%=      5-min Rain = 0
KTH1 150046Z 10004KT 33/20 A2997 RMK A01 T03340204  RH  047%=      5-min Rain = 0
KTH1 150047Z 11004KT 33/20 A2997 RMK A01 T03330204  RH  047%=      5-min Rain = 0
KTH1 150048Z 09007KT 33/20 A2997 RMK A01 T03320202  RH  047%=      5-min Rain = 0
KTH1 150049Z 10004KT 33/20 A2997 RMK A01 T03320202  RH  047%=      5-min Rain = 0
KTH1 150050Z 08004KT 33/20 A2998 RMK A01 T03320203  RH  047%=      5-min Rain = 0
KTH1 150051Z 09003KT 33/20 A2998 RMK A01 T03310203  RH  047%=      5-min Rain = 0
KTH1 150052Z 09004KT 33/20 A2998 RMK A01 T03310203  RH  047%=      5-min Rain = 0
KTH1 150053Z 09004KT 33/20 A2998 RMK A01 T03310204  RH  047%=      5-min Rain = 0
KTH1 150054Z 09004KT 33/20 A2998 RMK A01 T03300203  RH  047%=      5-min Rain = 0
KTH1 150055Z 09005KT 33/20 A2998 RMK A01 T03300202  RH  047%=      5-min Rain = 0
KTH1 150056Z 09004KT 33/20 A2998 RMK A01 T03290202  RH  047%=      5-min Rain = 0
KTH1 150057Z 10005KT 33/20 A2998 RMK A01 T03290202  RH  047%=      5-min Rain = 0
KTH1 150058Z 09006KT 33/20 A2998 RMK A01 T03290202  RH  047%=      5-min Rain = 0
KTH1 150059Z 10006KT 33/20 A2998 RMK A01 T03280202  RH  048%=      5-min Rain = 0
KTH1 150100Z 11005KT 33/20 A2998 RMK A01 T03280203  RH  048%=      5-min Rain = 0
KTH1 150101Z 11005KT 33/20 A2998 RMK A01 T03270202  RH  048%=      5-min Rain = 0
KTH1 150102Z 11006KT 33/20 A2998 RMK A01 T03260203  RH  048%=      5-min Rain = 0
KTH1 150103Z 10007KT 33/20 A2998 RMK A01 T03260202  RH  048%=      5-min Rain = 0
KTH1 150104Z 10005KT 33/20 A2998 RMK A01 T03250202  RH  048%=      5-min Rain = 0
KTH1 150105Z 10006KT 33/20 A2998 RMK A01 T03250203  RH  049%=      5-min Rain = 0
KTH1 150106Z 11005KT 32/20 A2998 RMK A01 T03240203  RH  049%=      5-min Rain = 0
KTH1 150107Z 11005KT 32/20 A2998 RMK A01 T03240203  RH  049%=      5-min Rain = 0
KTH1 150108Z 11005KT 32/20 A2998 RMK A01 T03230203  RH  049%=      5-min Rain = 0
KTH1 150109Z 10005KT 32/20 A2998 RMK A01 T03230203  RH  049%=      5-min Rain = 0
KTH1 150110Z 10005KT 32/20 A2998 RMK A01 T03220203  RH  050%=      5-min Rain = 0
KTH1 150111Z 10005KT 32/20 A2998 RMK A01 T03210203  RH  050%=      5-min Rain = 0
KTH1 150112Z 10005KT 32/20 A2998 RMK A01 T03210203  RH  050%=      5-min Rain = 0
KTH1 150113Z 11005KT 32/20 A2998 RMK A01 T03200203  RH  050%=      5-min Rain = 0
KTH1 150114Z 10005KT 32/20 A2998 RMK A01 T03200203  RH  050%=      5-min Rain = 0
KTH1 150115Z 11005KT 32/20 A2998 RMK A01 T03190203  RH  050%=      5-min Rain = 0
KTH1 150116Z 10004KT 32/20 A2998 RMK A01 T03190203  RH  050%=      5-min Rain = 0
KTH1 150117Z 10003KT 32/20 A2998 RMK A01 T03180203  RH  051%=      5-min Rain = 0
KTH1 150118Z 10005KT 32/20 A2998 RMK A01 T03180203  RH  051%=      5-min Rain = 0
KTH1 150119Z 10004KT 32/20 A2998 RMK A01 T03170203  RH  051%=      5-min Rain = 0
KTH1 150120Z 10005KT 32/20 A2999 RMK A01 T03170203  RH  051%=      5-min Rain = 0
KTH1 150121Z 10004KT 32/20 A2999 RMK A01 T03160203  RH  051%=      5-min Rain = 0
KTH1 150122Z 10004KT 32/20 A2999 RMK A01 T03160203  RH  051%=      5-min Rain = 0
KTH1 150123Z 10004KT 32/20 A2999 RMK A01 T03150203  RH  051%=      5-min Rain = 0
KTH1 150124Z 10004KT 32/20 A2999 RMK A01 T03150203  RH  052%=      5-min Rain = 0
KTH1 150125Z 10003KT 31/20 A2999 RMK A01 T03140203  RH  052%=      5-min Rain = 0
KTH1 150126Z 11003KT 31/20 A2999 RMK A01 T03140203  RH  052%=      5-min Rain = 0
KTH1 150127Z 10004KT 31/20 A2999 RMK A01 T03130203  RH  052%=      5-min Rain = 0
KTH1 150128Z 10004KT 31/20 A2999 RMK A01 T03120202  RH  052%=      5-min Rain = 0
KTH1 150129Z 09003KT 31/20 A2999 RMK A01 T03120203  RH  052%=      5-min Rain = 0
KTH1 150130Z 09005KT 31/20 A2999 RMK A01 T03120202  RH  052%=      5-min Rain = 0
KTH1 150131Z 10004KT 31/20 A2999 RMK A01 T03110201  RH  052%=      5-min Rain = 0
KTH1 150132Z 10004KT 31/20 A2999 RMK A01 T03110201  RH  052%=      5-min Rain = 0
KTH1 150133Z 10004KT 31/20 A30 RMK A01 T03110201  RH  052%=      5-min Rain = 0
KTH1 150134Z 09004KT 31/20 A30 RMK A01 T03110201  RH  052%=      5-min Rain = 0
KTH1 150135Z 10003KT 31/20 A30 RMK A01 T03110201  RH  052%=      5-min Rain = 0
KTH1 150136Z 10004KT 31/20 A30 RMK A01 T03110201  RH  052%=      5-min Rain = 0
KTH1 150137Z 09003KT 31/20 A30 RMK A01 T03100200  RH  052%=      5-min Rain = 0
KTH1 150138Z 10003KT 31/20 A30 RMK A01 T03090200  RH  052%=      5-min Rain = 0
KTH1 150139Z 10003KT 31/20 A30 RMK A01 T03090200  RH  052%=      5-min Rain = 0
KTH1 150140Z 10004KT 31/20 A30 RMK A01 T03090200  RH  052%=      5-min Rain = 0
KTH1 150141Z 10004KT 31/20 A30 RMK A01 T03080200  RH  052%=      5-min Rain = 0
KTH1 150142Z 10004KT 31/20 A30 RMK A01 T03080199  RH  052%=      5-min Rain = 0
KTH1 150143Z 10004KT 31/20 A30 RMK A01 T03070199  RH  052%=      5-min Rain = 0
KTH1 150144Z 10003KT 31/20 A30 RMK A01 T03070199  RH  053%=      5-min Rain = 0
KTH1 150145Z 10004KT 31/20 A30 RMK A01 T03070199  RH  053%=      5-min Rain = 0
KTH1 150146Z 10003KT 31/20 A30 RMK A01 T03060198  RH  053%=      5-min Rain = 0
KTH1 150147Z 09004KT 31/20 A30 RMK A01 T03060198  RH  053%=      5-min Rain = 0
KTH1 150148Z 10004KT 31/20 A30 RMK A01 T03060198  RH  053%=      5-min Rain = 0
KTH1 150149Z 10004KT 31/20 A30 RMK A01 T03060199  RH  053%=      5-min Rain = 0
KTH1 150150Z 10004KT 31/20 A3001 RMK A01 T03060198  RH  053%=      5-min Rain = 0
KTH1 150151Z 10005KT 31/20 A3001 RMK A01 T03050198  RH  053%=      5-min Rain = 0
KTH1 150152Z 09004KT 31/20 A3001 RMK A01 T03050197  RH  052%=      5-min Rain = 0
KTH1 150153Z 09005KT 31/20 A3001 RMK A01 T03050197  RH  052%=      5-min Rain = 0
KTH1 150154Z 09005KT 31/20 A3001 RMK A01 T03060197  RH  052%=      5-min Rain = 0
KTH1 150155Z 09004KT 31/20 A3001 RMK A01 T03060197  RH  052%=      5-min Rain = 0
KTH1 150156Z 09004KT 31/20 A3001 RMK A01 T03060197  RH  052%=      5-min Rain = 0
KTH1 150157Z 09004KT 31/20 A3001 RMK A01 T03060197  RH  052%=      5-min Rain = 0
KTH1 150158Z 08004KT 31/20 A3001 RMK A01 T03060198  RH  052%=      5-min Rain = 0
KTH1 150159Z 09004KT 31/20 A3001 RMK A01 T03050198  RH  053%=      5-min Rain = 0
KTH1 150200Z 09005KT 31/20 A3001 RMK A01 T03050198  RH  053%=      5-min Rain = 0
KTH1 150201Z 09006KT 30/20 A3001 RMK A01 T03040197  RH  053%=      5-min Rain = 0
KTH1 150202Z 09004KT 30/20 A3001 RMK A01 T03040197  RH  053%=      5-min Rain = 0
KTH1 150203Z 09005KT 30/20 A3001 RMK A01 T03040197  RH  053%=      5-min Rain = 0
KTH1 150204Z 09004KT 30/20 A3001 RMK A01 T03030198  RH  053%=      5-min Rain = 0
KTH1 150205Z 09005KT 30/20 A3001 RMK A01 T03030198  RH  053%=      5-min Rain = 0
KTH1 150206Z 10004KT 30/20 A3001 RMK A01 T03030198  RH  053%=      5-min Rain = 0
KTH1 150207Z 10003KT 30/20 A3001 RMK A01 T03030198  RH  053%=      5-min Rain = 0
KTH1 150208Z 09004KT 30/20 A3002 RMK A01 T03030198  RH  053%=      5-min Rain = 0
KTH1 150209Z 09005KT 30/20 A3002 RMK A01 T03020198  RH  054%=      5-min Rain = 0
KTH1 150210Z 10005KT 30/20 A3002 RMK A01 T03020198  RH  054%=      5-min Rain = 0
KTH1 150211Z 09005KT 30/20 A3002 RMK A01 T03020198  RH  054%=      5-min Rain = 0
KTH1 150212Z 10004KT 30/20 A3002 RMK A01 T03020198  RH  054%=      5-min Rain = 0
KTH1 150213Z 10004KT 30/20 A3002 RMK A01 T03020198  RH  054%=      5-min Rain = 0
KTH1 150214Z 10004KT 30/20 A3002 RMK A01 T03020198  RH  054%=      5-min Rain = 0
KTH1 150215Z 10003KT 30/20 A3002 RMK A01 T03020198  RH  054%=      5-min Rain = 0
KTH1 150216Z 09004KT 30/20 A3002 RMK A01 T03010198  RH  054%=      5-min Rain = 0
KTH1 150217Z 09005KT 30/20 A3002 RMK A01 T03010198  RH  054%=      5-min Rain = 0
KTH1 150218Z 09004KT 30/20 A3002 RMK A01 T03000198  RH  054%=      5-min Rain = 0
KTH1 150219Z 09004KT 30/20 A3002 RMK A01 T03000198  RH  054%=      5-min Rain = 0
KTH1 150220Z 09005KT 30/20 A3002 RMK A01 T03000198  RH  054%=      5-min Rain = 0
KTH1 150221Z 09005KT 30/20 A3002 RMK A01 T03000198  RH  055%=      5-min Rain = 0
KTH1 150222Z 08005KT 30/20 A3002 RMK A01 T02990198  RH  055%=      5-min Rain = 0
KTH1 150223Z 08004KT 30/20 A3002 RMK A01 T02990198  RH  055%=      5-min Rain = 0
KTH1 150224Z 09005KT 30/20 A3002 RMK A01 T02990199  RH  055%=      5-min Rain = 0
KTH1 150225Z 08004KT 30/20 A3002 RMK A01 T02990199  RH  055%=      5-min Rain = 0
KTH1 150226Z 08003KT 30/20 A3003 RMK A01 T02990199  RH  055%=      5-min Rain = 0
KTH1 150227Z 08004KT 30/20 A3003 RMK A01 T02980199  RH  055%=      5-min Rain = 0
KTH1 150228Z 08005KT 30/20 A3003 RMK A01 T02980199  RH  055%=      5-min Rain = 0
KTH1 150229Z 08004KT 30/20 A3003 RMK A01 T02980199  RH  055%=      5-min Rain = 0
KTH1 150230Z 08004KT 30/20 A3003 RMK A01 T02970199  RH  056%=      5-min Rain = 0
KTH1 150231Z 08004KT 30/20 A3003 RMK A01 T02970199  RH  056%=      5-min Rain = 0
KTH1 150232Z 08003KT 30/20 A3003 RMK A01 T02960199  RH  056%=      5-min Rain = 0
KTH1 150233Z 07004KT 30/20 A3003 RMK A01 T02960199  RH  056%=      5-min Rain = 0
KTH1 150234Z 08003KT 30/20 A3003 RMK A01 T02950199  RH  056%=      5-min Rain = 0
KTH1 150235Z 07004KT 30/20 A3003 RMK A01 T02950199  RH  056%=      5-min Rain = 0
KTH1 150236Z 08004KT 30/20 A3003 RMK A01 T02950199  RH  056%=      5-min Rain = 0
KTH1 150237Z 07004KT 29/20 A3003 RMK A01 T02940199  RH  057%=      5-min Rain = 0
KTH1 150238Z 07004KT 29/20 A3003 RMK A01 T02940199  RH  057%=      5-min Rain = 0
KTH1 150239Z 07004KT 29/20 A3004 RMK A01 T02930199  RH  057%=      5-min Rain = 0
KTH1 150240Z 07004KT 29/20 A3004 RMK A01 T02930199  RH  057%=      5-min Rain = 0
KTH1 150241Z 07004KT 29/20 A3004 RMK A01 T02930199  RH  057%=      5-min Rain = 0
KTH1 150242Z 07004KT 29/20 A3004 RMK A01 T02920199  RH  057%=      5-min Rain = 0
KTH1 150243Z 07004KT 29/20 A3004 RMK A01 T02920199  RH  057%=      5-min Rain = 0
KTH1 150244Z 07004KT 29/20 A3004 RMK A01 T02910199  RH  058%=      5-min Rain = 0
KTH1 150245Z 07003KT 29/20 A3004 RMK A01 T02910199  RH  058%=      5-min Rain = 0
KTH1 150246Z 07004KT 29/20 A3004 RMK A01 T02900199  RH  058%=      5-min Rain = 0
KTH1 150247Z 08004KT 29/20 A3004 RMK A01 T02900199  RH  058%=      5-min Rain = 0
KTH1 150248Z 08003KT 29/20 A3004 RMK A01 T02900200  RH  058%=      5-min Rain = 0
KTH1 150249Z 08003KT 29/20 A3004 RMK A01 T02890200  RH  059%=      5-min Rain = 0
KTH1 150250Z 08004KT 29/20 A3004 RMK A01 T02890200  RH  059%=      5-min Rain = 0
KTH1 150251Z 08004KT 29/20 A3004 RMK A01 T02880200  RH  059%=      5-min Rain = 0
KTH1 150252Z 08004KT 29/20 A3005 RMK A01 T02880200  RH  059%=      5-min Rain = 0
KTH1 150253Z 09004KT 29/20 A3005 RMK A01 T02880201  RH  059%=      5-min Rain = 0
KTH1 150254Z 09004KT 29/20 A3005 RMK A01 T02880201  RH  059%=      5-min Rain = 0
KTH1 150255Z 09004KT 29/20 A3005 RMK A01 T02870201  RH  059%=      5-min Rain = 0
KTH1 150256Z 09003KT 29/20 A3005 RMK A01 T02870201  RH  060%=      5-min Rain = 0
KTH1 150257Z 09004KT 29/20 A3005 RMK A01 T02870201  RH  060%=      5-min Rain = 0
KTH1 150258Z 09004KT 29/20 A3005 RMK A01 T02870201  RH  060%=      5-min Rain = 0
KTH1 150259Z 09004KT 29/20 A3005 RMK A01 T02870201  RH  060%=      5-min Rain = 0
KTH1 150300Z 10004KT 29/20 A3005 RMK A01 T02870202  RH  060%=      5-min Rain = 0
KTH1 150301Z 09004KT 29/20 A3005 RMK A01 T02870202  RH  060%=      5-min Rain = 0
KTH1 150302Z 09005KT 29/20 A3005 RMK A01 T02870202  RH  060%=      5-min Rain = 0
KTH1 150303Z 09005KT 29/20 A3005 RMK A01 T02870203  RH  060%=      5-min Rain = 0
KTH1 150304Z 09005KT 29/20 A3005 RMK A01 T02880203  RH  060%=      5-min Rain = 0
KTH1 150305Z 09005KT 29/20 A3005 RMK A01 T02880203  RH  060%=      5-min Rain = 0
KTH1 150306Z 10004KT 29/20 A3005 RMK A01 T02890203  RH  060%=      5-min Rain = 0
KTH1 150307Z 09005KT 29/20 A3005 RMK A01 T02890203  RH  060%=      5-min Rain = 0
KTH1 150308Z 09006KT 29/20 A3005 RMK A01 T02890203  RH  060%=      5-min Rain = 0
KTH1 150309Z 09005KT 29/20 A3005 RMK A01 T02890204  RH  060%=      5-min Rain = 0
KTH1 150310Z 10004KT 29/20 A3005 RMK A01 T02890203  RH  060%=      5-min Rain = 0
KTH1 150311Z 09004KT 29/20 A3005 RMK A01 T02890204  RH  060%=      5-min Rain = 0
KTH1 150312Z 09005KT 29/20 A3005 RMK A01 T02890204  RH  060%=      5-min Rain = 0
KTH1 150313Z 10005KT 29/20 A3005 RMK A01 T02890204  RH  060%=      5-min Rain = 0
KTH1 150314Z 09006KT 29/21 A3006 RMK A01 T02900205  RH  060%=      5-min Rain = 0
KTH1 150315Z 09006KT 29/21 A3006 RMK A01 T02890205  RH  060%=      5-min Rain = 0
KTH1 150316Z 09007KT 29/21 A3006 RMK A01 T02900205  RH  060%=      5-min Rain = 0
KTH1 150317Z 09006KT 29/21 A3006 RMK A01 T02900206  RH  060%=      5-min Rain = 0
KTH1 150318Z 09007KT 29/21 A3006 RMK A01 T02900206  RH  060%=      5-min Rain = 0
KTH1 150319Z 09006KT 29/21 A3006 RMK A01 T02900205  RH  060%=      5-min Rain = 0
KTH1 150320Z 10005KT 29/21 A3006 RMK A01 T02910206  RH  060%=      5-min Rain = 0
KTH1 150321Z 09006KT 29/21 A3006 RMK A01 T02910206  RH  060%=      5-min Rain = 0
KTH1 150322Z 10006KT 29/21 A3006 RMK A01 T02900206  RH  060%=      5-min Rain = 0
KTH1 150323Z 09006KT 29/21 A3006 RMK A01 T02900206  RH  060%=      5-min Rain = 0
KTH1 150324Z 09006KT 29/21 A3006 RMK A01 T02900206  RH  061%=      5-min Rain = 0
KTH1 150325Z 09005KT 29/21 A3006 RMK A01 T02890206  RH  061%=      5-min Rain = 0
KTH1 150326Z 09006KT 29/21 A3006 RMK A01 T02900206  RH  061%=      5-min Rain = 0
KTH1 150327Z 09005KT 29/21 A3006 RMK A01 T02890206  RH  061%=      5-min Rain = 0
KTH1 150328Z 09006KT 29/21 A3006 RMK A01 T02880206  RH  061%=      5-min Rain = 0
KTH1 150329Z 09007KT 29/21 A3006 RMK A01 T02880206  RH  061%=      5-min Rain = 0
KTH1 150330Z 10005KT 29/21 A3006 RMK A01 T02880206  RH  061%=      5-min Rain = 0
KTH1 150331Z 10006KT 29/21 A3006 RMK A01 T02880207  RH  061%=      5-min Rain = 0
KTH1 150332Z 10004KT 29/21 A3006 RMK A01 T02880206  RH  061%=      5-min Rain = 0
KTH1 150333Z 09004KT 29/21 A3006 RMK A01 T02880207  RH  061%=      5-min Rain = 0
KTH1 150334Z 10005KT 29/21 A3006 RMK A01 T02880207  RH  062%=      5-min Rain = 0
KTH1 150335Z 09005KT 29/21 A3006 RMK A01 T02880207  RH  062%=      5-min Rain = 0
KTH1 150336Z 09004KT 29/21 A3006 RMK A01 T02870207  RH  062%=      5-min Rain = 0
KTH1 150337Z 10004KT 29/21 A3006 RMK A01 T02860207  RH  062%=      5-min Rain = 0
KTH1 150338Z 09005KT 29/21 A3006 RMK A01 T02860207  RH  062%=      5-min Rain = 0
KTH1 150339Z 09005KT 29/21 A3007 RMK A01 T02860207  RH  062%=      5-min Rain = 0
KTH1 150340Z 08005KT 29/21 A3007 RMK A01 T02860207  RH  062%=      5-min Rain = 0
KTH1 150341Z 09006KT 29/21 A3007 RMK A01 T02860207  RH  062%=      5-min Rain = 0
KTH1 150342Z 08005KT 29/21 A3007 RMK A01 T02860207  RH  062%=      5-min Rain = 0
KTH1 150343Z 09005KT 29/21 A3007 RMK A01 T02860207  RH  062%=      5-min Rain = 0
KTH1 150344Z 09006KT 29/21 A3007 RMK A01 T02860207  RH  062%=      5-min Rain = 0
KTH1 150345Z 08004KT 29/21 A3007 RMK A01 T02860207  RH  062%=      5-min Rain = 0
KTH1 150346Z 08005KT 29/21 A3007 RMK A01 T02860207  RH  062%=      5-min Rain = 0
KTH1 150347Z 08005KT 29/21 A3007 RMK A01 T02860207  RH  062%=      5-min Rain = 0
KTH1 150348Z 08005KT 29/21 A3007 RMK A01 T02860207  RH  063%=      5-min Rain = 0
KTH1 150349Z 08004KT 29/21 A3007 RMK A01 T02860207  RH  063%=      5-min Rain = 0
KTH1 150350Z 09004KT 29/21 A3007 RMK A01 T02850207  RH  063%=      5-min Rain = 0
KTH1 150351Z 09005KT 29/21 A3007 RMK A01 T02850207  RH  063%=      5-min Rain = 0
KTH1 150352Z 08004KT 28/21 A3007 RMK A01 T02840207  RH  063%=      5-min Rain = 0
KTH1 150353Z 08004KT 28/21 A3007 RMK A01 T02840207  RH  063%=      5-min Rain = 0
KTH1 150354Z 09004KT 28/21 A3007 RMK A01 T02830207  RH  063%=      5-min Rain = 0
KTH1 150355Z 08004KT 28/21 A3007 RMK A01 T02830207  RH  064%=      5-min Rain = 0
KTH1 150356Z 09004KT 28/21 A3007 RMK A01 T02820207  RH  064%=      5-min Rain = 0
KTH1 150357Z 09005KT 28/21 A3007 RMK A01 T02820207  RH  064%=      5-min Rain = 0
KTH1 150358Z 08004KT 28/21 A3007 RMK A01 T02820207  RH  064%=      5-min Rain = 0
KTH1 150359Z 09004KT 28/21 A3007 RMK A01 T02820207  RH  064%=      5-min Rain = 0
KTH1 150400Z 09003KT 28/21 A3007 RMK A01 T02820207  RH  064%=      5-min Rain = 0
KTH1 150401Z 08004KT 28/21 A3007 RMK A01 T02810207  RH  064%=      5-min Rain = 0
KTH1 150402Z 08003KT 28/21 A3007 RMK A01 T02810207  RH  064%=      5-min Rain = 0
KTH1 150403Z 09003KT 28/21 A3007 RMK A01 T02800207  RH  064%=      5-min Rain = 0
KTH1 150404Z 09003KT 28/21 A3007 RMK A01 T02800207  RH  064%=      5-min Rain = 0
KTH1 150405Z 09003KT 28/21 A3007 RMK A01 T02800207  RH  065%=      5-min Rain = 0
KTH1 150406Z 09004KT 28/21 A3007 RMK A01 T02790207  RH  065%=      5-min Rain = 0
KTH1 150407Z 09004KT 28/21 A3007 RMK A01 T02790207  RH  065%=      5-min Rain = 0
KTH1 150408Z 09003KT 28/21 A3007 RMK A01 T02790207  RH  065%=      5-min Rain = 0
KTH1 150409Z 08004KT 28/21 A3007 RMK A01 T02780207  RH  065%=      5-min Rain = 0
KTH1 150410Z 09003KT 28/21 A3007 RMK A01 T02780207  RH  065%=      5-min Rain = 0
KTH1 150411Z 09004KT 28/21 A3007 RMK A01 T02770207  RH  065%=      5-min Rain = 0
KTH1 150412Z 09004KT 28/21 A3007 RMK A01 T02770207  RH  065%=      5-min Rain = 0
KTH1 150413Z 08004KT 28/21 A3007 RMK A01 T02770207  RH  066%=      5-min Rain = 0
KTH1 150414Z 09004KT 28/21 A3007 RMK A01 T02770207  RH  066%=      5-min Rain = 0
KTH1 150415Z 09005KT 28/21 A3007 RMK A01 T02770207  RH  066%=      5-min Rain = 0
KTH1 150416Z 09005KT 28/21 A3007 RMK A01 T02770206  RH  065%=      5-min Rain = 0
KTH1 150417Z 09005KT 28/21 A3007 RMK A01 T02770206  RH  065%=      5-min Rain = 0
KTH1 150418Z 09004KT 28/21 A3007 RMK A01 T02770206  RH  065%=      5-min Rain = 0
KTH1 150419Z 09005KT 28/21 A3007 RMK A01 T02780206  RH  065%=      5-min Rain = 0
KTH1 150420Z 10005KT 28/21 A3007 RMK A01 T02780207  RH  065%=      5-min Rain = 0
KTH1 150421Z 09004KT 28/21 A3007 RMK A01 T02790207  RH  065%=      5-min Rain = 0
KTH1 150422Z 09005KT 28/21 A3007 RMK A01 T02780206  RH  065%=      5-min Rain = 0
KTH1 150423Z 10005KT 28/21 A3007 RMK A01 T02790207  RH  065%=      5-min Rain = 0
KTH1 150424Z 09005KT 28/21 A3007 RMK A01 T02780206  RH  065%=      5-min Rain = 0
KTH1 150425Z 10005KT 28/21 A3007 RMK A01 T02780206  RH  065%=      5-min Rain = 0
KTH1 150426Z 10004KT 28/21 A3007 RMK A01 T02780206  RH  065%=      5-min Rain = 0
KTH1 150427Z 10004KT 28/21 A3007 RMK A01 T02780206  RH  065%=      5-min Rain = 0
KTH1 150428Z 10004KT 28/21 A3007 RMK A01 T02780206  RH  065%=      5-min Rain = 0
KTH1 150429Z 10005KT 28/21 A3007 RMK A01 T02780206  RH  065%=      5-min Rain = 0
KTH1 150430Z 10005KT 28/21 A3007 RMK A01 T02780207  RH  065%=      5-min Rain = 0
KTH1 150431Z 10005KT 28/21 A3007 RMK A01 T02780206  RH  065%=      5-min Rain = 0
KTH1 150432Z 10005KT 28/21 A3007 RMK A01 T02780206  RH  065%=      5-min Rain = 0
KTH1 150433Z 10005KT 28/21 A3007 RMK A01 T02780206  RH  065%=      5-min Rain = 0
KTH1 150434Z 10004KT 28/21 A3007 RMK A01 T02780206  RH  065%=      5-min Rain = 0
KTH1 150435Z 10005KT 28/21 A3007 RMK A01 T02780207  RH  065%=      5-min Rain = 0
KTH1 150436Z 11006KT 28/21 A3007 RMK A01 T02780207  RH  065%=      5-min Rain = 0
KTH1 150437Z 10004KT 28/21 A3007 RMK A01 T02780207  RH  065%=      5-min Rain = 0
KTH1 150438Z 10004KT 28/21 A3007 RMK A01 T02780207  RH  065%=      5-min Rain = 0
KTH1 150439Z 10004KT 28/21 A3007 RMK A01 T02780207  RH  065%=      5-min Rain = 0
KTH1 150440Z 10004KT 28/21 A3007 RMK A01 T02770207  RH  066%=      5-min Rain = 0
KTH1 150441Z 11005KT 28/21 A3007 RMK A01 T02770207  RH  066%=      5-min Rain = 0
KTH1 150442Z 10004KT 28/21 A3007 RMK A01 T02770207  RH  066%=      5-min Rain = 0
KTH1 150443Z 10005KT 28/21 A3007 RMK A01 T02760207  RH  066%=      5-min Rain = 0
KTH1 150444Z 10004KT 28/21 A3007 RMK A01 T02760206  RH  066%=      5-min Rain = 0
KTH1 150445Z 10003KT 28/21 A3007 RMK A01 T02760207  RH  066%=      5-min Rain = 0
KTH1 150446Z 10004KT 28/21 A3007 RMK A01 T02760207  RH  066%=      5-min Rain = 0
KTH1 150447Z 10003KT 28/21 A3007 RMK A01 T02760207  RH  066%=      5-min Rain = 0
KTH1 150448Z 11004KT 28/21 A3007 RMK A01 T02760207  RH  066%=      5-min Rain = 0
KTH1 150449Z 10003KT 28/21 A3007 RMK A01 T02750207  RH  066%=      5-min Rain = 0
KTH1 150450Z 10004KT 27/21 A3007 RMK A01 T02740206  RH  066%=      5-min Rain = 0
KTH1 150451Z 10003KT 27/21 A3007 RMK A01 T02740207  RH  067%=      5-min Rain = 0
KTH1 150452Z 11004KT 27/21 A3007 RMK A01 T02740207  RH  067%=      5-min Rain = 0
KTH1 150453Z 10004KT 27/21 A3007 RMK A01 T02740207  RH  067%=      5-min Rain = 0
KTH1 150454Z 11004KT 27/21 A3007 RMK A01 T02730206  RH  067%=      5-min Rain = 0
KTH1 150455Z 11004KT 27/21 A3007 RMK A01 T02730207  RH  067%=      5-min Rain = 0
KTH1 150456Z 10005KT 27/21 A3007 RMK A01 T02730207  RH  067%=      5-min Rain = 0
KTH1 150457Z 11004KT 27/21 A3007 RMK A01 T02730207  RH  067%=      5-min Rain = 0
KTH1 150458Z 11003KT 27/21 A3007 RMK A01 T02730207  RH  067%=      5-min Rain = 0
KTH1 150459Z 11004KT 27/21 A3007 RMK A01 T02720207  RH  067%=      5-min Rain = 0

Page generated in 0.131 seconds.